<?xml version="1.0" encoding="UTF-8" standalone="no" ?>
<gpx xmlns="http://www.topografix.com/GPX/1/1" xmlns:xsi="http://www.w3.org/2001/XMLSchema-instance" xsi:schemaLocation="http://www.topografix.com/GPX/1/1 http://www.topografix.com/GPX/1/1/gpx.xsd" version="1.1" creator="VisuGPX - https://www.visugpx.com">
  <metadata>
    <name>83-Me-Pierrefeu</name>
    <desc><![CDATA[83-Me-Pierrefeu : petit et grand Gageai
2024-10-23]]></desc>
  </metadata>
  <trk>
    <name><![CDATA[2024-10-23-Me-Pierrefeu]]></name>
    <extensions>
      <line xmlns="http://www.topografix.com/GPX/gpx_style/0/2">
        <width>4</width>
      </line>
    </extensions>
    <trkseg>
      <trkpt lat="43.21667" lon="6.22027">
        <ele>208.4</ele>
        <time>2024-10-23T12:53:17.000Z</time>
      </trkpt>
      <trkpt lat="43.2166" lon="6.22028">
        <ele>210</ele>
        <time>2024-10-23T12:53:38.000Z</time>
      </trkpt>
      <trkpt lat="43.21655" lon="6.22029">
        <ele>210</ele>
        <time>2024-10-23T12:53:46.000Z</time>
      </trkpt>
      <trkpt lat="43.21651" lon="6.22026">
        <ele>210.4</ele>
        <time>2024-10-23T12:55:53.000Z</time>
      </trkpt>
      <trkpt lat="43.21659" lon="6.22029">
        <ele>211.4</ele>
        <time>2024-10-23T12:59:12.000Z</time>
      </trkpt>
      <trkpt lat="43.2166" lon="6.22029">
        <ele>211.4</ele>
        <time>2024-10-23T12:59:13.000Z</time>
      </trkpt>
      <trkpt lat="43.21668" lon="6.22031">
        <ele>211.9</ele>
        <time>2024-10-23T13:00:14.000Z</time>
      </trkpt>
      <trkpt lat="43.21683" lon="6.2204">
        <ele>212.4</ele>
        <time>2024-10-23T13:00:34.000Z</time>
      </trkpt>
      <trkpt lat="43.21691" lon="6.22045">
        <ele>212.4</ele>
        <time>2024-10-23T13:00:44.000Z</time>
      </trkpt>
      <trkpt lat="43.21699" lon="6.22049">
        <ele>211.9</ele>
        <time>2024-10-23T13:00:53.000Z</time>
      </trkpt>
      <trkpt lat="43.21707" lon="6.22054">
        <ele>210.9</ele>
        <time>2024-10-23T13:01:03.000Z</time>
      </trkpt>
      <trkpt lat="43.21715" lon="6.22058">
        <ele>210</ele>
        <time>2024-10-23T13:01:12.000Z</time>
      </trkpt>
      <trkpt lat="43.21723" lon="6.22062">
        <ele>209.1</ele>
        <time>2024-10-23T13:01:22.000Z</time>
      </trkpt>
      <trkpt lat="43.21724" lon="6.22063">
        <ele>209</ele>
        <time>2024-10-23T13:01:23.000Z</time>
      </trkpt>
      <trkpt lat="43.21739" lon="6.22063">
        <ele>207.6</ele>
        <time>2024-10-23T13:01:40.000Z</time>
      </trkpt>
      <trkpt lat="43.21746" lon="6.22058">
        <ele>207</ele>
        <time>2024-10-23T13:01:48.000Z</time>
      </trkpt>
      <trkpt lat="43.21754" lon="6.22054">
        <ele>206.1</ele>
        <time>2024-10-23T13:01:56.000Z</time>
      </trkpt>
      <trkpt lat="43.21762" lon="6.22049">
        <ele>204.7</ele>
        <time>2024-10-23T13:02:07.000Z</time>
      </trkpt>
      <trkpt lat="43.21771" lon="6.22047">
        <ele>203.3</ele>
        <time>2024-10-23T13:02:19.000Z</time>
      </trkpt>
      <trkpt lat="43.2178" lon="6.22047">
        <ele>202.3</ele>
        <time>2024-10-23T13:02:30.000Z</time>
      </trkpt>
      <trkpt lat="43.21781" lon="6.22047">
        <ele>202.2</ele>
        <time>2024-10-23T13:02:31.000Z</time>
      </trkpt>
      <trkpt lat="43.21796" lon="6.22045">
        <ele>200.7</ele>
        <time>2024-10-23T13:02:47.000Z</time>
      </trkpt>
      <trkpt lat="43.21804" lon="6.22044">
        <ele>200</ele>
        <time>2024-10-23T13:02:56.000Z</time>
      </trkpt>
      <trkpt lat="43.21813" lon="6.22045">
        <ele>199</ele>
        <time>2024-10-23T13:03:05.000Z</time>
      </trkpt>
      <trkpt lat="43.21821" lon="6.22049">
        <ele>198</ele>
        <time>2024-10-23T13:03:15.000Z</time>
      </trkpt>
      <trkpt lat="43.21828" lon="6.22054">
        <ele>197.1</ele>
        <time>2024-10-23T13:03:24.000Z</time>
      </trkpt>
      <trkpt lat="43.21836" lon="6.22059">
        <ele>196.4</ele>
        <time>2024-10-23T13:03:34.000Z</time>
      </trkpt>
      <trkpt lat="43.21838" lon="6.22059">
        <ele>196.3</ele>
        <time>2024-10-23T13:03:35.000Z</time>
      </trkpt>
      <trkpt lat="43.21852" lon="6.22064">
        <ele>195.5</ele>
        <time>2024-10-23T13:03:49.000Z</time>
      </trkpt>
      <trkpt lat="43.21861" lon="6.22064">
        <ele>194.9</ele>
        <time>2024-10-23T13:03:57.000Z</time>
      </trkpt>
      <trkpt lat="43.21869" lon="6.22064">
        <ele>194</ele>
        <time>2024-10-23T13:04:06.000Z</time>
      </trkpt>
      <trkpt lat="43.21878" lon="6.22063">
        <ele>192.9</ele>
        <time>2024-10-23T13:04:16.000Z</time>
      </trkpt>
      <trkpt lat="43.21887" lon="6.22061">
        <ele>191.6</ele>
        <time>2024-10-23T13:04:27.000Z</time>
      </trkpt>
      <trkpt lat="43.21895" lon="6.22061">
        <ele>190.6</ele>
        <time>2024-10-23T13:04:35.000Z</time>
      </trkpt>
      <trkpt lat="43.21896" lon="6.22061">
        <ele>190.5</ele>
        <time>2024-10-23T13:04:36.000Z</time>
      </trkpt>
      <trkpt lat="43.21911" lon="6.22053">
        <ele>188.5</ele>
        <time>2024-10-23T13:04:53.000Z</time>
      </trkpt>
      <trkpt lat="43.2192" lon="6.22054">
        <ele>187.3</ele>
        <time>2024-10-23T13:05:02.000Z</time>
      </trkpt>
      <trkpt lat="43.21928" lon="6.22055">
        <ele>186.5</ele>
        <time>2024-10-23T13:05:10.000Z</time>
      </trkpt>
      <trkpt lat="43.21937" lon="6.22058">
        <ele>185.7</ele>
        <time>2024-10-23T13:05:19.000Z</time>
      </trkpt>
      <trkpt lat="43.21945" lon="6.22061">
        <ele>184.9</ele>
        <time>2024-10-23T13:05:28.000Z</time>
      </trkpt>
      <trkpt lat="43.21953" lon="6.22064">
        <ele>184.1</ele>
        <time>2024-10-23T13:05:37.000Z</time>
      </trkpt>
      <trkpt lat="43.21954" lon="6.22065">
        <ele>184</ele>
        <time>2024-10-23T13:05:38.000Z</time>
      </trkpt>
      <trkpt lat="43.21969" lon="6.22074">
        <ele>181.8</ele>
        <time>2024-10-23T13:05:58.000Z</time>
      </trkpt>
      <trkpt lat="43.21976" lon="6.22079">
        <ele>180.7</ele>
        <time>2024-10-23T13:06:10.000Z</time>
      </trkpt>
      <trkpt lat="43.21984" lon="6.22084">
        <ele>179.7</ele>
        <time>2024-10-23T13:06:19.000Z</time>
      </trkpt>
      <trkpt lat="43.21991" lon="6.22089">
        <ele>178.6</ele>
        <time>2024-10-23T13:06:30.000Z</time>
      </trkpt>
      <trkpt lat="43.21997" lon="6.22097">
        <ele>177.8</ele>
        <time>2024-10-23T13:06:39.000Z</time>
      </trkpt>
      <trkpt lat="43.21998" lon="6.22098">
        <ele>177.7</ele>
        <time>2024-10-23T13:06:40.000Z</time>
      </trkpt>
      <trkpt lat="43.22008" lon="6.22114">
        <ele>176.2</ele>
        <time>2024-10-23T13:06:58.000Z</time>
      </trkpt>
      <trkpt lat="43.22012" lon="6.22125">
        <ele>175.1</ele>
        <time>2024-10-23T13:07:09.000Z</time>
      </trkpt>
      <trkpt lat="43.22015" lon="6.22136">
        <ele>174.4</ele>
        <time>2024-10-23T13:07:18.000Z</time>
      </trkpt>
      <trkpt lat="43.22018" lon="6.22146">
        <ele>173.6</ele>
        <time>2024-10-23T13:07:26.000Z</time>
      </trkpt>
      <trkpt lat="43.2202" lon="6.22158">
        <ele>172.4</ele>
        <time>2024-10-23T13:07:38.000Z</time>
      </trkpt>
      <trkpt lat="43.22018" lon="6.2217">
        <ele>171</ele>
        <time>2024-10-23T13:07:50.000Z</time>
      </trkpt>
      <trkpt lat="43.22018" lon="6.22171">
        <ele>170.8</ele>
        <time>2024-10-23T13:07:51.000Z</time>
      </trkpt>
      <trkpt lat="43.22013" lon="6.22192">
        <ele>169.3</ele>
        <time>2024-10-23T13:08:10.000Z</time>
      </trkpt>
      <trkpt lat="43.22013" lon="6.22203">
        <ele>168.3</ele>
        <time>2024-10-23T13:08:20.000Z</time>
      </trkpt>
      <trkpt lat="43.22013" lon="6.22215">
        <ele>167.1</ele>
        <time>2024-10-23T13:08:31.000Z</time>
      </trkpt>
      <trkpt lat="43.22014" lon="6.22226">
        <ele>166.5</ele>
        <time>2024-10-23T13:08:40.000Z</time>
      </trkpt>
      <trkpt lat="43.22017" lon="6.22237">
        <ele>164.6</ele>
        <time>2024-10-23T13:09:21.000Z</time>
      </trkpt>
      <trkpt lat="43.22017" lon="6.22239">
        <ele>164.6</ele>
        <time>2024-10-23T13:09:22.000Z</time>
      </trkpt>
      <trkpt lat="43.22007" lon="6.22256">
        <ele>164.5</ele>
        <time>2024-10-23T13:09:37.000Z</time>
      </trkpt>
      <trkpt lat="43.22004" lon="6.22266">
        <ele>164.2</ele>
        <time>2024-10-23T13:09:45.000Z</time>
      </trkpt>
      <trkpt lat="43.22002" lon="6.22277">
        <ele>164</ele>
        <time>2024-10-23T13:09:53.000Z</time>
      </trkpt>
      <trkpt lat="43.21998" lon="6.22288">
        <ele>164</ele>
        <time>2024-10-23T13:10:02.000Z</time>
      </trkpt>
      <trkpt lat="43.21995" lon="6.22298">
        <ele>164.2</ele>
        <time>2024-10-23T13:10:10.000Z</time>
      </trkpt>
      <trkpt lat="43.21992" lon="6.22308">
        <ele>164.6</ele>
        <time>2024-10-23T13:10:19.000Z</time>
      </trkpt>
      <trkpt lat="43.21988" lon="6.22319">
        <ele>165.3</ele>
        <time>2024-10-23T13:10:28.000Z</time>
      </trkpt>
      <trkpt lat="43.21987" lon="6.22321">
        <ele>165.3</ele>
        <time>2024-10-23T13:10:29.000Z</time>
      </trkpt>
      <trkpt lat="43.21982" lon="6.22341">
        <ele>166.7</ele>
        <time>2024-10-23T13:10:44.000Z</time>
      </trkpt>
      <trkpt lat="43.21978" lon="6.22351">
        <ele>167.1</ele>
        <time>2024-10-23T13:10:51.000Z</time>
      </trkpt>
      <trkpt lat="43.21974" lon="6.2236">
        <ele>167.5</ele>
        <time>2024-10-23T13:10:58.000Z</time>
      </trkpt>
      <trkpt lat="43.21969" lon="6.22369">
        <ele>167.8</ele>
        <time>2024-10-23T13:11:06.000Z</time>
      </trkpt>
      <trkpt lat="43.21966" lon="6.2238">
        <ele>168.4</ele>
        <time>2024-10-23T13:11:14.000Z</time>
      </trkpt>
      <trkpt lat="43.21964" lon="6.22392">
        <ele>169.3</ele>
        <time>2024-10-23T13:11:43.000Z</time>
      </trkpt>
      <trkpt lat="43.21964" lon="6.22393">
        <ele>169.3</ele>
        <time>2024-10-23T13:11:44.000Z</time>
      </trkpt>
      <trkpt lat="43.21958" lon="6.22414">
        <ele>167.8</ele>
        <time>2024-10-23T13:12:19.000Z</time>
      </trkpt>
      <trkpt lat="43.21951" lon="6.22421">
        <ele>167</ele>
        <time>2024-10-23T13:12:37.000Z</time>
      </trkpt>
      <trkpt lat="43.21944" lon="6.22428">
        <ele>167.4</ele>
        <time>2024-10-23T13:12:49.000Z</time>
      </trkpt>
      <trkpt lat="43.21943" lon="6.22429">
        <ele>167.5</ele>
        <time>2024-10-23T13:12:50.000Z</time>
      </trkpt>
      <trkpt lat="43.21931" lon="6.22444">
        <ele>169.7</ele>
        <time>2024-10-23T13:13:10.000Z</time>
      </trkpt>
      <trkpt lat="43.21928" lon="6.22455">
        <ele>171.7</ele>
        <time>2024-10-23T13:13:26.000Z</time>
      </trkpt>
      <trkpt lat="43.2193" lon="6.22466">
        <ele>173.6</ele>
        <time>2024-10-23T13:13:39.000Z</time>
      </trkpt>
      <trkpt lat="43.21938" lon="6.22472">
        <ele>175.4</ele>
        <time>2024-10-23T13:13:52.000Z</time>
      </trkpt>
      <trkpt lat="43.21939" lon="6.22472">
        <ele>175.6</ele>
        <time>2024-10-23T13:13:53.000Z</time>
      </trkpt>
      <trkpt lat="43.21945" lon="6.22494">
        <ele>179.1</ele>
        <time>2024-10-23T13:14:16.000Z</time>
      </trkpt>
      <trkpt lat="43.21947" lon="6.22505">
        <ele>180.4</ele>
        <time>2024-10-23T13:14:26.000Z</time>
      </trkpt>
      <trkpt lat="43.21949" lon="6.22517">
        <ele>181.9</ele>
        <time>2024-10-23T13:14:37.000Z</time>
      </trkpt>
      <trkpt lat="43.2195" lon="6.22528">
        <ele>183.1</ele>
        <time>2024-10-23T13:14:47.000Z</time>
      </trkpt>
      <trkpt lat="43.21953" lon="6.2254">
        <ele>184.3</ele>
        <time>2024-10-23T13:15:03.000Z</time>
      </trkpt>
      <trkpt lat="43.21953" lon="6.2254">
        <ele>184.4</ele>
        <time>2024-10-23T13:15:04.000Z</time>
      </trkpt>
      <trkpt lat="43.21954" lon="6.22563">
        <ele>185.5</ele>
        <time>2024-10-23T13:15:36.000Z</time>
      </trkpt>
      <trkpt lat="43.21959" lon="6.22573">
        <ele>185.6</ele>
        <time>2024-10-23T13:15:44.000Z</time>
      </trkpt>
      <trkpt lat="43.21965" lon="6.22581">
        <ele>186.1</ele>
        <time>2024-10-23T13:15:53.000Z</time>
      </trkpt>
      <trkpt lat="43.21968" lon="6.22592">
        <ele>187</ele>
        <time>2024-10-23T13:16:03.000Z</time>
      </trkpt>
      <trkpt lat="43.21969" lon="6.22604">
        <ele>188.3</ele>
        <time>2024-10-23T13:16:15.000Z</time>
      </trkpt>
      <trkpt lat="43.21969" lon="6.22605">
        <ele>188.4</ele>
        <time>2024-10-23T13:16:16.000Z</time>
      </trkpt>
      <trkpt lat="43.21969" lon="6.22628">
        <ele>191.3</ele>
        <time>2024-10-23T13:16:42.000Z</time>
      </trkpt>
      <trkpt lat="43.21969" lon="6.2264">
        <ele>192.6</ele>
        <time>2024-10-23T13:16:53.000Z</time>
      </trkpt>
      <trkpt lat="43.2197" lon="6.22652">
        <ele>193.7</ele>
        <time>2024-10-23T13:17:03.000Z</time>
      </trkpt>
      <trkpt lat="43.21971" lon="6.22663">
        <ele>194.8</ele>
        <time>2024-10-23T13:17:12.000Z</time>
      </trkpt>
      <trkpt lat="43.21971" lon="6.22675">
        <ele>196.1</ele>
        <time>2024-10-23T13:17:22.000Z</time>
      </trkpt>
      <trkpt lat="43.21971" lon="6.22677">
        <ele>196.2</ele>
        <time>2024-10-23T13:17:23.000Z</time>
      </trkpt>
      <trkpt lat="43.2197" lon="6.22699">
        <ele>198.8</ele>
        <time>2024-10-23T13:17:44.000Z</time>
      </trkpt>
      <trkpt lat="43.21969" lon="6.2271">
        <ele>199.9</ele>
        <time>2024-10-23T13:17:53.000Z</time>
      </trkpt>
      <trkpt lat="43.21968" lon="6.22721">
        <ele>200.7</ele>
        <time>2024-10-23T13:18:02.000Z</time>
      </trkpt>
      <trkpt lat="43.21968" lon="6.22733">
        <ele>202.1</ele>
        <time>2024-10-23T13:18:14.000Z</time>
      </trkpt>
      <trkpt lat="43.21968" lon="6.22744">
        <ele>203.1</ele>
        <time>2024-10-23T13:18:24.000Z</time>
      </trkpt>
      <trkpt lat="43.21968" lon="6.22745">
        <ele>203.2</ele>
        <time>2024-10-23T13:18:25.000Z</time>
      </trkpt>
      <trkpt lat="43.2197" lon="6.22768">
        <ele>205.2</ele>
        <time>2024-10-23T13:18:46.000Z</time>
      </trkpt>
      <trkpt lat="43.21971" lon="6.22779">
        <ele>206.6</ele>
        <time>2024-10-23T13:18:58.000Z</time>
      </trkpt>
      <trkpt lat="43.21973" lon="6.22791">
        <ele>207.6</ele>
        <time>2024-10-23T13:19:08.000Z</time>
      </trkpt>
      <trkpt lat="43.21975" lon="6.22803">
        <ele>208.6</ele>
        <time>2024-10-23T13:19:17.000Z</time>
      </trkpt>
      <trkpt lat="43.21977" lon="6.22814">
        <ele>209.5</ele>
        <time>2024-10-23T13:19:27.000Z</time>
      </trkpt>
      <trkpt lat="43.21977" lon="6.22815">
        <ele>209.6</ele>
        <time>2024-10-23T13:19:28.000Z</time>
      </trkpt>
      <trkpt lat="43.21979" lon="6.22838">
        <ele>211.1</ele>
        <time>2024-10-23T13:19:46.000Z</time>
      </trkpt>
      <trkpt lat="43.21981" lon="6.22849">
        <ele>211.7</ele>
        <time>2024-10-23T13:19:55.000Z</time>
      </trkpt>
      <trkpt lat="43.21985" lon="6.22859">
        <ele>212.9</ele>
        <time>2024-10-23T13:20:04.000Z</time>
      </trkpt>
      <trkpt lat="43.21988" lon="6.22871">
        <ele>213.9</ele>
        <time>2024-10-23T13:20:14.000Z</time>
      </trkpt>
      <trkpt lat="43.2199" lon="6.22882">
        <ele>214.8</ele>
        <time>2024-10-23T13:20:24.000Z</time>
      </trkpt>
      <trkpt lat="43.21993" lon="6.22893">
        <ele>215.7</ele>
        <time>2024-10-23T13:20:34.000Z</time>
      </trkpt>
      <trkpt lat="43.21993" lon="6.22894">
        <ele>215.8</ele>
        <time>2024-10-23T13:20:35.000Z</time>
      </trkpt>
      <trkpt lat="43.21998" lon="6.22915">
        <ele>217.5</ele>
        <time>2024-10-23T13:20:55.000Z</time>
      </trkpt>
      <trkpt lat="43.22002" lon="6.22925">
        <ele>218.5</ele>
        <time>2024-10-23T13:21:04.000Z</time>
      </trkpt>
      <trkpt lat="43.22006" lon="6.22935">
        <ele>219.5</ele>
        <time>2024-10-23T13:21:14.000Z</time>
      </trkpt>
      <trkpt lat="43.2201" lon="6.22945">
        <ele>220.2</ele>
        <time>2024-10-23T13:21:23.000Z</time>
      </trkpt>
      <trkpt lat="43.22012" lon="6.22957">
        <ele>220.8</ele>
        <time>2024-10-23T13:21:35.000Z</time>
      </trkpt>
      <trkpt lat="43.22013" lon="6.22958">
        <ele>220.9</ele>
        <time>2024-10-23T13:21:36.000Z</time>
      </trkpt>
      <trkpt lat="43.22017" lon="6.2298">
        <ele>221.9</ele>
        <time>2024-10-23T13:21:55.000Z</time>
      </trkpt>
      <trkpt lat="43.2202" lon="6.2299">
        <ele>222.5</ele>
        <time>2024-10-23T13:22:05.000Z</time>
      </trkpt>
      <trkpt lat="43.22027" lon="6.22998">
        <ele>223.2</ele>
        <time>2024-10-23T13:22:13.000Z</time>
      </trkpt>
      <trkpt lat="43.22031" lon="6.23008">
        <ele>224.1</ele>
        <time>2024-10-23T13:22:22.000Z</time>
      </trkpt>
      <trkpt lat="43.22036" lon="6.23018">
        <ele>225.6</ele>
        <time>2024-10-23T13:22:33.000Z</time>
      </trkpt>
      <trkpt lat="43.2204" lon="6.23028">
        <ele>226.7</ele>
        <time>2024-10-23T13:22:42.000Z</time>
      </trkpt>
      <trkpt lat="43.22041" lon="6.23029">
        <ele>226.8</ele>
        <time>2024-10-23T13:22:43.000Z</time>
      </trkpt>
      <trkpt lat="43.22049" lon="6.23049">
        <ele>228.3</ele>
        <time>2024-10-23T13:23:01.000Z</time>
      </trkpt>
      <trkpt lat="43.2205" lon="6.2306">
        <ele>228.7</ele>
        <time>2024-10-23T13:23:12.000Z</time>
      </trkpt>
      <trkpt lat="43.22053" lon="6.23072">
        <ele>228.8</ele>
        <time>2024-10-23T13:23:20.000Z</time>
      </trkpt>
      <trkpt lat="43.22057" lon="6.23082">
        <ele>228.8</ele>
        <time>2024-10-23T13:23:27.000Z</time>
      </trkpt>
      <trkpt lat="43.22061" lon="6.23092">
        <ele>228.8</ele>
        <time>2024-10-23T13:23:51.000Z</time>
      </trkpt>
      <trkpt lat="43.22062" lon="6.23092">
        <ele>228.8</ele>
        <time>2024-10-23T13:23:52.000Z</time>
      </trkpt>
      <trkpt lat="43.22078" lon="6.23096">
        <ele>231</ele>
        <time>2024-10-23T13:25:54.000Z</time>
      </trkpt>
      <trkpt lat="43.22079" lon="6.23096">
        <ele>231</ele>
        <time>2024-10-23T13:25:55.000Z</time>
      </trkpt>
      <trkpt lat="43.22092" lon="6.23111">
        <ele>232</ele>
        <time>2024-10-23T13:26:15.000Z</time>
      </trkpt>
      <trkpt lat="43.221" lon="6.23115">
        <ele>232.9</ele>
        <time>2024-10-23T13:26:24.000Z</time>
      </trkpt>
      <trkpt lat="43.22106" lon="6.23107">
        <ele>233.9</ele>
        <time>2024-10-23T13:26:36.000Z</time>
      </trkpt>
      <trkpt lat="43.22106" lon="6.23096">
        <ele>234.9</ele>
        <time>2024-10-23T13:26:45.000Z</time>
      </trkpt>
      <trkpt lat="43.22105" lon="6.23085">
        <ele>235.6</ele>
        <time>2024-10-23T13:26:54.000Z</time>
      </trkpt>
      <trkpt lat="43.22107" lon="6.23074">
        <ele>236.4</ele>
        <time>2024-10-23T13:27:02.000Z</time>
      </trkpt>
      <trkpt lat="43.22107" lon="6.23072">
        <ele>236.5</ele>
        <time>2024-10-23T13:27:03.000Z</time>
      </trkpt>
      <trkpt lat="43.22112" lon="6.23052">
        <ele>237.9</ele>
        <time>2024-10-23T13:27:20.000Z</time>
      </trkpt>
      <trkpt lat="43.2211" lon="6.2304">
        <ele>238.5</ele>
        <time>2024-10-23T13:27:30.000Z</time>
      </trkpt>
      <trkpt lat="43.22109" lon="6.2303">
        <ele>239.2</ele>
        <time>2024-10-23T13:27:38.000Z</time>
      </trkpt>
      <trkpt lat="43.22108" lon="6.23018">
        <ele>239.7</ele>
        <time>2024-10-23T13:27:46.000Z</time>
      </trkpt>
      <trkpt lat="43.22109" lon="6.23006">
        <ele>240.1</ele>
        <time>2024-10-23T13:27:55.000Z</time>
      </trkpt>
      <trkpt lat="43.2211" lon="6.22994">
        <ele>240.9</ele>
        <time>2024-10-23T13:28:04.000Z</time>
      </trkpt>
      <trkpt lat="43.2211" lon="6.22993">
        <ele>241</ele>
        <time>2024-10-23T13:28:05.000Z</time>
      </trkpt>
      <trkpt lat="43.22113" lon="6.22972">
        <ele>242.6</ele>
        <time>2024-10-23T13:28:22.000Z</time>
      </trkpt>
      <trkpt lat="43.22116" lon="6.22962">
        <ele>243.7</ele>
        <time>2024-10-23T13:28:32.000Z</time>
      </trkpt>
      <trkpt lat="43.22118" lon="6.22951">
        <ele>244.7</ele>
        <time>2024-10-23T13:28:41.000Z</time>
      </trkpt>
      <trkpt lat="43.22117" lon="6.22939">
        <ele>246.2</ele>
        <time>2024-10-23T13:28:50.000Z</time>
      </trkpt>
      <trkpt lat="43.22116" lon="6.22928">
        <ele>247</ele>
        <time>2024-10-23T13:28:59.000Z</time>
      </trkpt>
      <trkpt lat="43.22115" lon="6.22917">
        <ele>247.8</ele>
        <time>2024-10-23T13:29:07.000Z</time>
      </trkpt>
      <trkpt lat="43.22115" lon="6.22916">
        <ele>247.9</ele>
        <time>2024-10-23T13:29:08.000Z</time>
      </trkpt>
      <trkpt lat="43.22115" lon="6.22894">
        <ele>249.1</ele>
        <time>2024-10-23T13:29:24.000Z</time>
      </trkpt>
      <trkpt lat="43.22117" lon="6.22882">
        <ele>249.8</ele>
        <time>2024-10-23T13:29:33.000Z</time>
      </trkpt>
      <trkpt lat="43.22118" lon="6.22871">
        <ele>250.2</ele>
        <time>2024-10-23T13:29:41.000Z</time>
      </trkpt>
      <trkpt lat="43.2212" lon="6.2286">
        <ele>250.8</ele>
        <time>2024-10-23T13:29:49.000Z</time>
      </trkpt>
      <trkpt lat="43.22122" lon="6.22849">
        <ele>251.3</ele>
        <time>2024-10-23T13:29:57.000Z</time>
      </trkpt>
      <trkpt lat="43.22124" lon="6.22838">
        <ele>251.7</ele>
        <time>2024-10-23T13:30:05.000Z</time>
      </trkpt>
      <trkpt lat="43.22126" lon="6.22827">
        <ele>252.3</ele>
        <time>2024-10-23T13:30:14.000Z</time>
      </trkpt>
      <trkpt lat="43.22127" lon="6.22826">
        <ele>252.4</ele>
        <time>2024-10-23T13:30:15.000Z</time>
      </trkpt>
      <trkpt lat="43.22133" lon="6.22805">
        <ele>254</ele>
        <time>2024-10-23T13:30:33.000Z</time>
      </trkpt>
      <trkpt lat="43.22136" lon="6.22816">
        <ele>255.6</ele>
        <time>2024-10-23T13:30:47.000Z</time>
      </trkpt>
      <trkpt lat="43.22135" lon="6.22828">
        <ele>256.5</ele>
        <time>2024-10-23T13:30:57.000Z</time>
      </trkpt>
      <trkpt lat="43.22134" lon="6.22839">
        <ele>257.6</ele>
        <time>2024-10-23T13:31:06.000Z</time>
      </trkpt>
      <trkpt lat="43.22134" lon="6.22851">
        <ele>258.6</ele>
        <time>2024-10-23T13:31:15.000Z</time>
      </trkpt>
      <trkpt lat="43.22135" lon="6.22852">
        <ele>258.7</ele>
        <time>2024-10-23T13:31:16.000Z</time>
      </trkpt>
      <trkpt lat="43.22137" lon="6.22874">
        <ele>260.6</ele>
        <time>2024-10-23T13:31:34.000Z</time>
      </trkpt>
      <trkpt lat="43.22139" lon="6.22886">
        <ele>261.5</ele>
        <time>2024-10-23T13:31:44.000Z</time>
      </trkpt>
      <trkpt lat="43.22142" lon="6.22897">
        <ele>262.5</ele>
        <time>2024-10-23T13:31:53.000Z</time>
      </trkpt>
      <trkpt lat="43.22144" lon="6.22908">
        <ele>263.4</ele>
        <time>2024-10-23T13:32:03.000Z</time>
      </trkpt>
      <trkpt lat="43.22147" lon="6.2292">
        <ele>264.2</ele>
        <time>2024-10-23T13:32:12.000Z</time>
      </trkpt>
      <trkpt lat="43.22151" lon="6.2293">
        <ele>265</ele>
        <time>2024-10-23T13:32:20.000Z</time>
      </trkpt>
      <trkpt lat="43.22151" lon="6.22931">
        <ele>265</ele>
        <time>2024-10-23T13:32:21.000Z</time>
      </trkpt>
      <trkpt lat="43.22155" lon="6.22953">
        <ele>266.7</ele>
        <time>2024-10-23T13:32:39.000Z</time>
      </trkpt>
      <trkpt lat="43.22158" lon="6.22964">
        <ele>267.8</ele>
        <time>2024-10-23T13:32:49.000Z</time>
      </trkpt>
      <trkpt lat="43.2216" lon="6.22975">
        <ele>268.6</ele>
        <time>2024-10-23T13:32:58.000Z</time>
      </trkpt>
      <trkpt lat="43.22164" lon="6.22986">
        <ele>269.5</ele>
        <time>2024-10-23T13:33:07.000Z</time>
      </trkpt>
      <trkpt lat="43.22168" lon="6.22996">
        <ele>270.4</ele>
        <time>2024-10-23T13:33:16.000Z</time>
      </trkpt>
      <trkpt lat="43.22174" lon="6.23005">
        <ele>271.8</ele>
        <time>2024-10-23T13:33:26.000Z</time>
      </trkpt>
      <trkpt lat="43.22174" lon="6.23006">
        <ele>271.9</ele>
        <time>2024-10-23T13:33:27.000Z</time>
      </trkpt>
      <trkpt lat="43.22185" lon="6.23022">
        <ele>274.2</ele>
        <time>2024-10-23T13:33:43.000Z</time>
      </trkpt>
      <trkpt lat="43.22191" lon="6.2303">
        <ele>275.7</ele>
        <time>2024-10-23T13:33:53.000Z</time>
      </trkpt>
      <trkpt lat="43.22197" lon="6.23038">
        <ele>276.6</ele>
        <time>2024-10-23T13:34:01.000Z</time>
      </trkpt>
      <trkpt lat="43.22203" lon="6.23046">
        <ele>277.3</ele>
        <time>2024-10-23T13:34:10.000Z</time>
      </trkpt>
      <trkpt lat="43.22207" lon="6.23057">
        <ele>278.1</ele>
        <time>2024-10-23T13:34:20.000Z</time>
      </trkpt>
      <trkpt lat="43.22207" lon="6.23069">
        <ele>279.1</ele>
        <time>2024-10-23T13:34:30.000Z</time>
      </trkpt>
      <trkpt lat="43.22207" lon="6.2307">
        <ele>279.2</ele>
        <time>2024-10-23T13:34:31.000Z</time>
      </trkpt>
      <trkpt lat="43.22207" lon="6.23092">
        <ele>281</ele>
        <time>2024-10-23T13:34:49.000Z</time>
      </trkpt>
      <trkpt lat="43.22208" lon="6.23104">
        <ele>281.9</ele>
        <time>2024-10-23T13:34:58.000Z</time>
      </trkpt>
      <trkpt lat="43.2221" lon="6.23115">
        <ele>282.9</ele>
        <time>2024-10-23T13:35:07.000Z</time>
      </trkpt>
      <trkpt lat="43.22212" lon="6.23127">
        <ele>283.7</ele>
        <time>2024-10-23T13:35:16.000Z</time>
      </trkpt>
      <trkpt lat="43.22213" lon="6.23139">
        <ele>284.6</ele>
        <time>2024-10-23T13:35:25.000Z</time>
      </trkpt>
      <trkpt lat="43.22215" lon="6.2315">
        <ele>285.3</ele>
        <time>2024-10-23T13:35:34.000Z</time>
      </trkpt>
      <trkpt lat="43.22215" lon="6.23152">
        <ele>285.3</ele>
        <time>2024-10-23T13:35:35.000Z</time>
      </trkpt>
      <trkpt lat="43.22219" lon="6.23173">
        <ele>286.5</ele>
        <time>2024-10-23T13:35:51.000Z</time>
      </trkpt>
      <trkpt lat="43.2222" lon="6.23184">
        <ele>286.8</ele>
        <time>2024-10-23T13:35:59.000Z</time>
      </trkpt>
      <trkpt lat="43.22221" lon="6.23195">
        <ele>287</ele>
        <time>2024-10-23T13:36:08.000Z</time>
      </trkpt>
      <trkpt lat="43.22222" lon="6.23207">
        <ele>287.3</ele>
        <time>2024-10-23T13:36:16.000Z</time>
      </trkpt>
      <trkpt lat="43.22221" lon="6.23218">
        <ele>288.2</ele>
        <time>2024-10-23T13:36:25.000Z</time>
      </trkpt>
      <trkpt lat="43.22221" lon="6.2323">
        <ele>288.9</ele>
        <time>2024-10-23T13:36:34.000Z</time>
      </trkpt>
      <trkpt lat="43.22224" lon="6.23242">
        <ele>289.8</ele>
        <time>2024-10-23T13:36:45.000Z</time>
      </trkpt>
      <trkpt lat="43.22224" lon="6.23242">
        <ele>289.9</ele>
        <time>2024-10-23T13:36:46.000Z</time>
      </trkpt>
      <trkpt lat="43.22224" lon="6.23253">
        <ele>292.2</ele>
        <time>2024-10-23T13:40:29.000Z</time>
      </trkpt>
      <trkpt lat="43.22224" lon="6.23254">
        <ele>292.2</ele>
        <time>2024-10-23T13:40:30.000Z</time>
      </trkpt>
      <trkpt lat="43.22216" lon="6.23273">
        <ele>292.2</ele>
        <time>2024-10-23T13:40:49.000Z</time>
      </trkpt>
      <trkpt lat="43.22211" lon="6.23282">
        <ele>292.3</ele>
        <time>2024-10-23T13:40:57.000Z</time>
      </trkpt>
      <trkpt lat="43.22206" lon="6.23291">
        <ele>292.3</ele>
        <time>2024-10-23T13:41:06.000Z</time>
      </trkpt>
      <trkpt lat="43.222" lon="6.233">
        <ele>292.3</ele>
        <time>2024-10-23T13:41:14.000Z</time>
      </trkpt>
      <trkpt lat="43.22194" lon="6.23307">
        <ele>292.3</ele>
        <time>2024-10-23T13:41:21.000Z</time>
      </trkpt>
      <trkpt lat="43.22187" lon="6.23314">
        <ele>292.3</ele>
        <time>2024-10-23T13:41:28.000Z</time>
      </trkpt>
      <trkpt lat="43.22181" lon="6.23321">
        <ele>292.3</ele>
        <time>2024-10-23T13:41:35.000Z</time>
      </trkpt>
      <trkpt lat="43.2218" lon="6.23323">
        <ele>292.3</ele>
        <time>2024-10-23T13:41:36.000Z</time>
      </trkpt>
      <trkpt lat="43.22169" lon="6.23337">
        <ele>292.3</ele>
        <time>2024-10-23T13:41:49.000Z</time>
      </trkpt>
      <trkpt lat="43.22163" lon="6.23345">
        <ele>292.3</ele>
        <time>2024-10-23T13:41:56.000Z</time>
      </trkpt>
      <trkpt lat="43.22157" lon="6.23352">
        <ele>292.2</ele>
        <time>2024-10-23T13:42:03.000Z</time>
      </trkpt>
      <trkpt lat="43.22152" lon="6.23361">
        <ele>292.3</ele>
        <time>2024-10-23T13:42:10.000Z</time>
      </trkpt>
      <trkpt lat="43.22147" lon="6.23371">
        <ele>292.4</ele>
        <time>2024-10-23T13:42:17.000Z</time>
      </trkpt>
      <trkpt lat="43.22143" lon="6.2338">
        <ele>292.4</ele>
        <time>2024-10-23T13:42:24.000Z</time>
      </trkpt>
      <trkpt lat="43.22137" lon="6.23389">
        <ele>292.4</ele>
        <time>2024-10-23T13:42:31.000Z</time>
      </trkpt>
      <trkpt lat="43.22132" lon="6.23399">
        <ele>292.5</ele>
        <time>2024-10-23T13:42:40.000Z</time>
      </trkpt>
      <trkpt lat="43.22132" lon="6.234">
        <ele>292.5</ele>
        <time>2024-10-23T13:42:41.000Z</time>
      </trkpt>
      <trkpt lat="43.22123" lon="6.23418">
        <ele>292.6</ele>
        <time>2024-10-23T13:42:54.000Z</time>
      </trkpt>
      <trkpt lat="43.22117" lon="6.23427">
        <ele>292.7</ele>
        <time>2024-10-23T13:43:00.000Z</time>
      </trkpt>
      <trkpt lat="43.22114" lon="6.23438">
        <ele>292.9</ele>
        <time>2024-10-23T13:43:07.000Z</time>
      </trkpt>
      <trkpt lat="43.22108" lon="6.23447">
        <ele>293</ele>
        <time>2024-10-23T13:43:14.000Z</time>
      </trkpt>
      <trkpt lat="43.22104" lon="6.23457">
        <ele>293.1</ele>
        <time>2024-10-23T13:43:21.000Z</time>
      </trkpt>
      <trkpt lat="43.22102" lon="6.23469">
        <ele>293.1</ele>
        <time>2024-10-23T13:43:29.000Z</time>
      </trkpt>
      <trkpt lat="43.22097" lon="6.23477">
        <ele>293.3</ele>
        <time>2024-10-23T13:43:35.000Z</time>
      </trkpt>
      <trkpt lat="43.22092" lon="6.23487">
        <ele>293.5</ele>
        <time>2024-10-23T13:43:42.000Z</time>
      </trkpt>
      <trkpt lat="43.22091" lon="6.23488">
        <ele>293.5</ele>
        <time>2024-10-23T13:43:43.000Z</time>
      </trkpt>
      <trkpt lat="43.22082" lon="6.23506">
        <ele>293.8</ele>
        <time>2024-10-23T13:43:56.000Z</time>
      </trkpt>
      <trkpt lat="43.22078" lon="6.23515">
        <ele>293.9</ele>
        <time>2024-10-23T13:44:03.000Z</time>
      </trkpt>
      <trkpt lat="43.22071" lon="6.23521">
        <ele>294.1</ele>
        <time>2024-10-23T13:44:09.000Z</time>
      </trkpt>
      <trkpt lat="43.22066" lon="6.23531">
        <ele>294.3</ele>
        <time>2024-10-23T13:44:16.000Z</time>
      </trkpt>
      <trkpt lat="43.22064" lon="6.23542">
        <ele>294.5</ele>
        <time>2024-10-23T13:44:23.000Z</time>
      </trkpt>
      <trkpt lat="43.22059" lon="6.23551">
        <ele>294.7</ele>
        <time>2024-10-23T13:44:32.000Z</time>
      </trkpt>
      <trkpt lat="43.22053" lon="6.23558">
        <ele>294.8</ele>
        <time>2024-10-23T13:44:37.000Z</time>
      </trkpt>
      <trkpt lat="43.22048" lon="6.23566">
        <ele>294.8</ele>
        <time>2024-10-23T13:44:43.000Z</time>
      </trkpt>
      <trkpt lat="43.22048" lon="6.23568">
        <ele>294.9</ele>
        <time>2024-10-23T13:44:44.000Z</time>
      </trkpt>
      <trkpt lat="43.2204" lon="6.23587">
        <ele>294.9</ele>
        <time>2024-10-23T13:44:55.000Z</time>
      </trkpt>
      <trkpt lat="43.22037" lon="6.23598">
        <ele>295</ele>
        <time>2024-10-23T13:45:03.000Z</time>
      </trkpt>
      <trkpt lat="43.22035" lon="6.23608">
        <ele>295.2</ele>
        <time>2024-10-23T13:45:09.000Z</time>
      </trkpt>
      <trkpt lat="43.2203" lon="6.23618">
        <ele>295.4</ele>
        <time>2024-10-23T13:45:16.000Z</time>
      </trkpt>
      <trkpt lat="43.22027" lon="6.23628">
        <ele>295.5</ele>
        <time>2024-10-23T13:45:23.000Z</time>
      </trkpt>
      <trkpt lat="43.22024" lon="6.23639">
        <ele>295.6</ele>
        <time>2024-10-23T13:45:30.000Z</time>
      </trkpt>
      <trkpt lat="43.22019" lon="6.23647">
        <ele>295.6</ele>
        <time>2024-10-23T13:45:36.000Z</time>
      </trkpt>
      <trkpt lat="43.22015" lon="6.23657">
        <ele>295.7</ele>
        <time>2024-10-23T13:45:42.000Z</time>
      </trkpt>
      <trkpt lat="43.2201" lon="6.23666">
        <ele>295.6</ele>
        <time>2024-10-23T13:45:49.000Z</time>
      </trkpt>
      <trkpt lat="43.2201" lon="6.23668">
        <ele>295.6</ele>
        <time>2024-10-23T13:45:50.000Z</time>
      </trkpt>
      <trkpt lat="43.22011" lon="6.23689">
        <ele>295.6</ele>
        <time>2024-10-23T13:46:04.000Z</time>
      </trkpt>
      <trkpt lat="43.22012" lon="6.23701">
        <ele>295.6</ele>
        <time>2024-10-23T13:46:10.000Z</time>
      </trkpt>
      <trkpt lat="43.22014" lon="6.23712">
        <ele>295.6</ele>
        <time>2024-10-23T13:46:16.000Z</time>
      </trkpt>
      <trkpt lat="43.22014" lon="6.23724">
        <ele>295.6</ele>
        <time>2024-10-23T13:46:23.000Z</time>
      </trkpt>
      <trkpt lat="43.22015" lon="6.23735">
        <ele>295.6</ele>
        <time>2024-10-23T13:46:30.000Z</time>
      </trkpt>
      <trkpt lat="43.22014" lon="6.23746">
        <ele>295.6</ele>
        <time>2024-10-23T13:46:37.000Z</time>
      </trkpt>
      <trkpt lat="43.22014" lon="6.23758">
        <ele>295.6</ele>
        <time>2024-10-23T13:46:44.000Z</time>
      </trkpt>
      <trkpt lat="43.22014" lon="6.2377">
        <ele>295.6</ele>
        <time>2024-10-23T13:46:51.000Z</time>
      </trkpt>
      <trkpt lat="43.22015" lon="6.23772">
        <ele>295.6</ele>
        <time>2024-10-23T13:46:52.000Z</time>
      </trkpt>
      <trkpt lat="43.22023" lon="6.2379">
        <ele>295.6</ele>
        <time>2024-10-23T13:47:05.000Z</time>
      </trkpt>
      <trkpt lat="43.22028" lon="6.23798">
        <ele>295.6</ele>
        <time>2024-10-23T13:47:12.000Z</time>
      </trkpt>
      <trkpt lat="43.22035" lon="6.23804">
        <ele>295.6</ele>
        <time>2024-10-23T13:47:18.000Z</time>
      </trkpt>
      <trkpt lat="43.22041" lon="6.2381">
        <ele>295.5</ele>
        <time>2024-10-23T13:47:23.000Z</time>
      </trkpt>
      <trkpt lat="43.22048" lon="6.23816">
        <ele>295.5</ele>
        <time>2024-10-23T13:47:28.000Z</time>
      </trkpt>
      <trkpt lat="43.22054" lon="6.23822">
        <ele>295.4</ele>
        <time>2024-10-23T13:47:34.000Z</time>
      </trkpt>
      <trkpt lat="43.2206" lon="6.23829">
        <ele>295.2</ele>
        <time>2024-10-23T13:47:41.000Z</time>
      </trkpt>
      <trkpt lat="43.22066" lon="6.23837">
        <ele>295</ele>
        <time>2024-10-23T13:47:47.000Z</time>
      </trkpt>
      <trkpt lat="43.22072" lon="6.23845">
        <ele>294.8</ele>
        <time>2024-10-23T13:47:54.000Z</time>
      </trkpt>
      <trkpt lat="43.22073" lon="6.23846">
        <ele>294.8</ele>
        <time>2024-10-23T13:47:55.000Z</time>
      </trkpt>
      <trkpt lat="43.22083" lon="6.23862">
        <ele>294.6</ele>
        <time>2024-10-23T13:48:08.000Z</time>
      </trkpt>
      <trkpt lat="43.2209" lon="6.23868">
        <ele>294.5</ele>
        <time>2024-10-23T13:48:14.000Z</time>
      </trkpt>
      <trkpt lat="43.22098" lon="6.23872">
        <ele>294.5</ele>
        <time>2024-10-23T13:48:20.000Z</time>
      </trkpt>
      <trkpt lat="43.22105" lon="6.23875">
        <ele>294.5</ele>
        <time>2024-10-23T13:48:26.000Z</time>
      </trkpt>
      <trkpt lat="43.22114" lon="6.23877">
        <ele>294.3</ele>
        <time>2024-10-23T13:48:34.000Z</time>
      </trkpt>
      <trkpt lat="43.22122" lon="6.23878">
        <ele>294.2</ele>
        <time>2024-10-23T13:48:40.000Z</time>
      </trkpt>
      <trkpt lat="43.2213" lon="6.2388">
        <ele>294.1</ele>
        <time>2024-10-23T13:48:47.000Z</time>
      </trkpt>
      <trkpt lat="43.22138" lon="6.23882">
        <ele>294.1</ele>
        <time>2024-10-23T13:48:54.000Z</time>
      </trkpt>
      <trkpt lat="43.22147" lon="6.23882">
        <ele>293.9</ele>
        <time>2024-10-23T13:49:01.000Z</time>
      </trkpt>
      <trkpt lat="43.22148" lon="6.23882">
        <ele>293.9</ele>
        <time>2024-10-23T13:49:02.000Z</time>
      </trkpt>
      <trkpt lat="43.22164" lon="6.23885">
        <ele>293.6</ele>
        <time>2024-10-23T13:49:15.000Z</time>
      </trkpt>
      <trkpt lat="43.22171" lon="6.2389">
        <ele>293.5</ele>
        <time>2024-10-23T13:49:22.000Z</time>
      </trkpt>
      <trkpt lat="43.22176" lon="6.239">
        <ele>293.1</ele>
        <time>2024-10-23T13:49:30.000Z</time>
      </trkpt>
      <trkpt lat="43.2218" lon="6.23911">
        <ele>292.9</ele>
        <time>2024-10-23T13:49:37.000Z</time>
      </trkpt>
      <trkpt lat="43.22182" lon="6.23922">
        <ele>292.8</ele>
        <time>2024-10-23T13:49:44.000Z</time>
      </trkpt>
      <trkpt lat="43.22184" lon="6.23933">
        <ele>292.7</ele>
        <time>2024-10-23T13:49:52.000Z</time>
      </trkpt>
      <trkpt lat="43.22188" lon="6.23943">
        <ele>292.6</ele>
        <time>2024-10-23T13:49:58.000Z</time>
      </trkpt>
      <trkpt lat="43.22192" lon="6.23953">
        <ele>292.6</ele>
        <time>2024-10-23T13:50:06.000Z</time>
      </trkpt>
      <trkpt lat="43.22192" lon="6.23954">
        <ele>292.6</ele>
        <time>2024-10-23T13:50:07.000Z</time>
      </trkpt>
      <trkpt lat="43.22204" lon="6.23969">
        <ele>292.5</ele>
        <time>2024-10-23T13:50:20.000Z</time>
      </trkpt>
      <trkpt lat="43.2221" lon="6.23976">
        <ele>292.5</ele>
        <time>2024-10-23T13:50:26.000Z</time>
      </trkpt>
      <trkpt lat="43.22217" lon="6.23982">
        <ele>292.6</ele>
        <time>2024-10-23T13:50:32.000Z</time>
      </trkpt>
      <trkpt lat="43.22224" lon="6.23987">
        <ele>292.6</ele>
        <time>2024-10-23T13:50:38.000Z</time>
      </trkpt>
      <trkpt lat="43.22232" lon="6.23992">
        <ele>292.6</ele>
        <time>2024-10-23T13:50:44.000Z</time>
      </trkpt>
      <trkpt lat="43.22239" lon="6.23995">
        <ele>292.7</ele>
        <time>2024-10-23T13:50:50.000Z</time>
      </trkpt>
      <trkpt lat="43.22247" lon="6.23999">
        <ele>292.7</ele>
        <time>2024-10-23T13:50:56.000Z</time>
      </trkpt>
      <trkpt lat="43.22255" lon="6.24003">
        <ele>292.5</ele>
        <time>2024-10-23T13:51:03.000Z</time>
      </trkpt>
      <trkpt lat="43.22263" lon="6.24008">
        <ele>292.4</ele>
        <time>2024-10-23T13:51:10.000Z</time>
      </trkpt>
      <trkpt lat="43.22264" lon="6.24009">
        <ele>292.4</ele>
        <time>2024-10-23T13:51:11.000Z</time>
      </trkpt>
      <trkpt lat="43.22265" lon="6.24026">
        <ele>292.6</ele>
        <time>2024-10-23T13:52:56.000Z</time>
      </trkpt>
      <trkpt lat="43.22264" lon="6.24026">
        <ele>292.6</ele>
        <time>2024-10-23T13:52:57.000Z</time>
      </trkpt>
      <trkpt lat="43.22248" lon="6.2403">
        <ele>295.4</ele>
        <time>2024-10-23T13:53:20.000Z</time>
      </trkpt>
      <trkpt lat="43.2224" lon="6.24036">
        <ele>297.2</ele>
        <time>2024-10-23T13:53:32.000Z</time>
      </trkpt>
      <trkpt lat="43.22231" lon="6.24034">
        <ele>298.5</ele>
        <time>2024-10-23T13:53:44.000Z</time>
      </trkpt>
      <trkpt lat="43.22223" lon="6.2403">
        <ele>299.6</ele>
        <time>2024-10-23T13:53:54.000Z</time>
      </trkpt>
      <trkpt lat="43.22215" lon="6.24027">
        <ele>300.2</ele>
        <time>2024-10-23T13:54:03.000Z</time>
      </trkpt>
      <trkpt lat="43.22214" lon="6.24027">
        <ele>300.3</ele>
        <time>2024-10-23T13:54:04.000Z</time>
      </trkpt>
      <trkpt lat="43.22198" lon="6.24025">
        <ele>301.3</ele>
        <time>2024-10-23T13:54:21.000Z</time>
      </trkpt>
      <trkpt lat="43.2219" lon="6.24022">
        <ele>302</ele>
        <time>2024-10-23T13:54:31.000Z</time>
      </trkpt>
      <trkpt lat="43.22181" lon="6.24018">
        <ele>303.5</ele>
        <time>2024-10-23T13:54:42.000Z</time>
      </trkpt>
      <trkpt lat="43.22174" lon="6.24013">
        <ele>305.3</ele>
        <time>2024-10-23T13:54:54.000Z</time>
      </trkpt>
      <trkpt lat="43.22166" lon="6.24007">
        <ele>307.4</ele>
        <time>2024-10-23T13:55:08.000Z</time>
      </trkpt>
      <trkpt lat="43.22165" lon="6.24007">
        <ele>307.6</ele>
        <time>2024-10-23T13:55:09.000Z</time>
      </trkpt>
      <trkpt lat="43.22151" lon="6.23997">
        <ele>311.1</ele>
        <time>2024-10-23T13:55:32.000Z</time>
      </trkpt>
      <trkpt lat="43.22143" lon="6.23991">
        <ele>313.3</ele>
        <time>2024-10-23T13:55:46.000Z</time>
      </trkpt>
      <trkpt lat="43.22136" lon="6.23984">
        <ele>315.8</ele>
        <time>2024-10-23T13:56:00.000Z</time>
      </trkpt>
      <trkpt lat="43.22128" lon="6.23981">
        <ele>318</ele>
        <time>2024-10-23T13:56:13.000Z</time>
      </trkpt>
      <trkpt lat="43.22127" lon="6.23981">
        <ele>318.1</ele>
        <time>2024-10-23T13:56:14.000Z</time>
      </trkpt>
      <trkpt lat="43.22111" lon="6.2398">
        <ele>321.5</ele>
        <time>2024-10-23T13:56:36.000Z</time>
      </trkpt>
      <trkpt lat="43.22103" lon="6.23978">
        <ele>323.1</ele>
        <time>2024-10-23T13:56:47.000Z</time>
      </trkpt>
      <trkpt lat="43.22095" lon="6.23978">
        <ele>324.4</ele>
        <time>2024-10-23T13:57:00.000Z</time>
      </trkpt>
      <trkpt lat="43.22086" lon="6.23977">
        <ele>325.4</ele>
        <time>2024-10-23T13:57:08.000Z</time>
      </trkpt>
      <trkpt lat="43.22078" lon="6.23977">
        <ele>326.2</ele>
        <time>2024-10-23T13:57:16.000Z</time>
      </trkpt>
      <trkpt lat="43.22077" lon="6.23978">
        <ele>326.3</ele>
        <time>2024-10-23T13:57:17.000Z</time>
      </trkpt>
      <trkpt lat="43.2206" lon="6.23979">
        <ele>328.7</ele>
        <time>2024-10-23T13:57:38.000Z</time>
      </trkpt>
      <trkpt lat="43.22052" lon="6.23979">
        <ele>331.2</ele>
        <time>2024-10-23T13:57:52.000Z</time>
      </trkpt>
      <trkpt lat="43.22043" lon="6.23979">
        <ele>334</ele>
        <time>2024-10-23T13:58:08.000Z</time>
      </trkpt>
      <trkpt lat="43.22035" lon="6.23978">
        <ele>335.9</ele>
        <time>2024-10-23T13:58:24.000Z</time>
      </trkpt>
      <trkpt lat="43.22034" lon="6.23978">
        <ele>336.1</ele>
        <time>2024-10-23T13:58:25.000Z</time>
      </trkpt>
      <trkpt lat="43.22018" lon="6.23976">
        <ele>341.4</ele>
        <time>2024-10-23T13:58:57.000Z</time>
      </trkpt>
      <trkpt lat="43.22009" lon="6.23974">
        <ele>344.1</ele>
        <time>2024-10-23T13:59:14.000Z</time>
      </trkpt>
      <trkpt lat="43.22" lon="6.23971">
        <ele>348</ele>
        <time>2024-10-23T13:59:37.000Z</time>
      </trkpt>
      <trkpt lat="43.22" lon="6.23971">
        <ele>348.2</ele>
        <time>2024-10-23T13:59:38.000Z</time>
      </trkpt>
      <trkpt lat="43.21983" lon="6.23966">
        <ele>354.5</ele>
        <time>2024-10-23T14:00:19.000Z</time>
      </trkpt>
      <trkpt lat="43.21975" lon="6.23967">
        <ele>357</ele>
        <time>2024-10-23T14:00:35.000Z</time>
      </trkpt>
      <trkpt lat="43.21966" lon="6.2397">
        <ele>358.6</ele>
        <time>2024-10-23T14:00:47.000Z</time>
      </trkpt>
      <trkpt lat="43.21965" lon="6.2397">
        <ele>358.7</ele>
        <time>2024-10-23T14:00:48.000Z</time>
      </trkpt>
      <trkpt lat="43.2195" lon="6.23971">
        <ele>361.3</ele>
        <time>2024-10-23T14:01:41.000Z</time>
      </trkpt>
      <trkpt lat="43.21941" lon="6.23972">
        <ele>361.5</ele>
        <time>2024-10-23T14:01:52.000Z</time>
      </trkpt>
      <trkpt lat="43.2194" lon="6.23972">
        <ele>361.6</ele>
        <time>2024-10-23T14:01:53.000Z</time>
      </trkpt>
      <trkpt lat="43.21924" lon="6.23977">
        <ele>362.1</ele>
        <time>2024-10-23T14:02:12.000Z</time>
      </trkpt>
      <trkpt lat="43.21917" lon="6.2398">
        <ele>362.3</ele>
        <time>2024-10-23T14:02:19.000Z</time>
      </trkpt>
      <trkpt lat="43.21909" lon="6.23985">
        <ele>362.7</ele>
        <time>2024-10-23T14:02:29.000Z</time>
      </trkpt>
      <trkpt lat="43.219" lon="6.23989">
        <ele>363.6</ele>
        <time>2024-10-23T14:02:39.000Z</time>
      </trkpt>
      <trkpt lat="43.21893" lon="6.23995">
        <ele>364.8</ele>
        <time>2024-10-23T14:02:52.000Z</time>
      </trkpt>
      <trkpt lat="43.21885" lon="6.24001">
        <ele>367</ele>
        <time>2024-10-23T14:03:08.000Z</time>
      </trkpt>
      <trkpt lat="43.21885" lon="6.24001">
        <ele>367.1</ele>
        <time>2024-10-23T14:03:09.000Z</time>
      </trkpt>
      <trkpt lat="43.21869" lon="6.24011">
        <ele>371.2</ele>
        <time>2024-10-23T14:03:37.000Z</time>
      </trkpt>
      <trkpt lat="43.21861" lon="6.24017">
        <ele>373.1</ele>
        <time>2024-10-23T14:03:50.000Z</time>
      </trkpt>
      <trkpt lat="43.21855" lon="6.24023">
        <ele>375.3</ele>
        <time>2024-10-23T14:04:04.000Z</time>
      </trkpt>
      <trkpt lat="43.21848" lon="6.24031">
        <ele>377.3</ele>
        <time>2024-10-23T14:04:17.000Z</time>
      </trkpt>
      <trkpt lat="43.21847" lon="6.24031">
        <ele>377.5</ele>
        <time>2024-10-23T14:04:18.000Z</time>
      </trkpt>
      <trkpt lat="43.21835" lon="6.24047">
        <ele>380.7</ele>
        <time>2024-10-23T14:04:44.000Z</time>
      </trkpt>
      <trkpt lat="43.21829" lon="6.24056">
        <ele>382.7</ele>
        <time>2024-10-23T14:04:58.000Z</time>
      </trkpt>
      <trkpt lat="43.21823" lon="6.24064">
        <ele>384.7</ele>
        <time>2024-10-23T14:05:12.000Z</time>
      </trkpt>
      <trkpt lat="43.21816" lon="6.24071">
        <ele>385.9</ele>
        <time>2024-10-23T14:05:22.000Z</time>
      </trkpt>
      <trkpt lat="43.21815" lon="6.24071">
        <ele>386</ele>
        <time>2024-10-23T14:05:23.000Z</time>
      </trkpt>
      <trkpt lat="43.21804" lon="6.24087">
        <ele>388.7</ele>
        <time>2024-10-23T14:05:47.000Z</time>
      </trkpt>
      <trkpt lat="43.21797" lon="6.24094">
        <ele>390.2</ele>
        <time>2024-10-23T14:05:59.000Z</time>
      </trkpt>
      <trkpt lat="43.21789" lon="6.24101">
        <ele>391.7</ele>
        <time>2024-10-23T14:06:11.000Z</time>
      </trkpt>
      <trkpt lat="43.21783" lon="6.24108">
        <ele>393.6</ele>
        <time>2024-10-23T14:06:24.000Z</time>
      </trkpt>
      <trkpt lat="43.21782" lon="6.24108">
        <ele>393.8</ele>
        <time>2024-10-23T14:06:25.000Z</time>
      </trkpt>
      <trkpt lat="43.21769" lon="6.24122">
        <ele>397</ele>
        <time>2024-10-23T14:06:50.000Z</time>
      </trkpt>
      <trkpt lat="43.21762" lon="6.2413">
        <ele>399.1</ele>
        <time>2024-10-23T14:07:04.000Z</time>
      </trkpt>
      <trkpt lat="43.21756" lon="6.24138">
        <ele>401.3</ele>
        <time>2024-10-23T14:07:21.000Z</time>
      </trkpt>
      <trkpt lat="43.21749" lon="6.24145">
        <ele>403.6</ele>
        <time>2024-10-23T14:07:35.000Z</time>
      </trkpt>
      <trkpt lat="43.21748" lon="6.24146">
        <ele>403.7</ele>
        <time>2024-10-23T14:07:36.000Z</time>
      </trkpt>
      <trkpt lat="43.21737" lon="6.24162">
        <ele>408.4</ele>
        <time>2024-10-23T14:08:05.000Z</time>
      </trkpt>
      <trkpt lat="43.21731" lon="6.24171">
        <ele>410.7</ele>
        <time>2024-10-23T14:08:21.000Z</time>
      </trkpt>
      <trkpt lat="43.21729" lon="6.24182">
        <ele>412.6</ele>
        <time>2024-10-23T14:08:35.000Z</time>
      </trkpt>
      <trkpt lat="43.21726" lon="6.24193">
        <ele>414</ele>
        <time>2024-10-23T14:08:48.000Z</time>
      </trkpt>
      <trkpt lat="43.21726" lon="6.24194">
        <ele>414.1</ele>
        <time>2024-10-23T14:08:49.000Z</time>
      </trkpt>
      <trkpt lat="43.2172" lon="6.24216">
        <ele>416.4</ele>
        <time>2024-10-23T14:09:11.000Z</time>
      </trkpt>
      <trkpt lat="43.21718" lon="6.24228">
        <ele>418.1</ele>
        <time>2024-10-23T14:09:23.000Z</time>
      </trkpt>
      <trkpt lat="43.21717" lon="6.24239">
        <ele>419.3</ele>
        <time>2024-10-23T14:09:33.000Z</time>
      </trkpt>
      <trkpt lat="43.21717" lon="6.24251">
        <ele>419.9</ele>
        <time>2024-10-23T14:09:42.000Z</time>
      </trkpt>
      <trkpt lat="43.21717" lon="6.24262">
        <ele>420.6</ele>
        <time>2024-10-23T14:09:52.000Z</time>
      </trkpt>
      <trkpt lat="43.21718" lon="6.24263">
        <ele>420.7</ele>
        <time>2024-10-23T14:09:53.000Z</time>
      </trkpt>
      <trkpt lat="43.21721" lon="6.24285">
        <ele>421.2</ele>
        <time>2024-10-23T14:10:10.000Z</time>
      </trkpt>
      <trkpt lat="43.2172" lon="6.24297">
        <ele>420.6</ele>
        <time>2024-10-23T14:10:19.000Z</time>
      </trkpt>
      <trkpt lat="43.21719" lon="6.24308">
        <ele>419.9</ele>
        <time>2024-10-23T14:10:27.000Z</time>
      </trkpt>
      <trkpt lat="43.21715" lon="6.24318">
        <ele>419.2</ele>
        <time>2024-10-23T14:10:35.000Z</time>
      </trkpt>
      <trkpt lat="43.2171" lon="6.24327">
        <ele>418.3</ele>
        <time>2024-10-23T14:10:43.000Z</time>
      </trkpt>
      <trkpt lat="43.21706" lon="6.24337">
        <ele>417.1</ele>
        <time>2024-10-23T14:10:54.000Z</time>
      </trkpt>
      <trkpt lat="43.21706" lon="6.24338">
        <ele>417</ele>
        <time>2024-10-23T14:10:55.000Z</time>
      </trkpt>
      <trkpt lat="43.21699" lon="6.24359">
        <ele>414.7</ele>
        <time>2024-10-23T14:11:23.000Z</time>
      </trkpt>
      <trkpt lat="43.21696" lon="6.24369">
        <ele>414</ele>
        <time>2024-10-23T14:11:33.000Z</time>
      </trkpt>
      <trkpt lat="43.21692" lon="6.24379">
        <ele>413.6</ele>
        <time>2024-10-23T14:11:43.000Z</time>
      </trkpt>
      <trkpt lat="43.21691" lon="6.24367">
        <ele>413.8</ele>
        <time>2024-10-23T14:13:15.000Z</time>
      </trkpt>
      <trkpt lat="43.21691" lon="6.24366">
        <ele>413.8</ele>
        <time>2024-10-23T14:13:16.000Z</time>
      </trkpt>
      <trkpt lat="43.21695" lon="6.24343">
        <ele>415.4</ele>
        <time>2024-10-23T14:13:47.000Z</time>
      </trkpt>
      <trkpt lat="43.21698" lon="6.24332">
        <ele>417.3</ele>
        <time>2024-10-23T14:14:02.000Z</time>
      </trkpt>
      <trkpt lat="43.217" lon="6.24321">
        <ele>419.8</ele>
        <time>2024-10-23T14:14:18.000Z</time>
      </trkpt>
      <trkpt lat="43.217" lon="6.2432">
        <ele>419.9</ele>
        <time>2024-10-23T14:14:19.000Z</time>
      </trkpt>
      <trkpt lat="43.21699" lon="6.24297">
        <ele>423.7</ele>
        <time>2024-10-23T14:14:48.000Z</time>
      </trkpt>
      <trkpt lat="43.21697" lon="6.24285">
        <ele>425.8</ele>
        <time>2024-10-23T14:15:03.000Z</time>
      </trkpt>
      <trkpt lat="43.21696" lon="6.24273">
        <ele>427.7</ele>
        <time>2024-10-23T14:15:18.000Z</time>
      </trkpt>
      <trkpt lat="43.21691" lon="6.24263">
        <ele>429.2</ele>
        <time>2024-10-23T14:15:33.000Z</time>
      </trkpt>
      <trkpt lat="43.21691" lon="6.24262">
        <ele>429.3</ele>
        <time>2024-10-23T14:15:34.000Z</time>
      </trkpt>
      <trkpt lat="43.21679" lon="6.24246">
        <ele>433</ele>
        <time>2024-10-23T14:16:00.000Z</time>
      </trkpt>
      <trkpt lat="43.21673" lon="6.24237">
        <ele>434.5</ele>
        <time>2024-10-23T14:16:12.000Z</time>
      </trkpt>
      <trkpt lat="43.21668" lon="6.24228">
        <ele>435.3</ele>
        <time>2024-10-23T14:16:24.000Z</time>
      </trkpt>
      <trkpt lat="43.21663" lon="6.24217">
        <ele>436.2</ele>
        <time>2024-10-23T14:16:36.000Z</time>
      </trkpt>
      <trkpt lat="43.21662" lon="6.24216">
        <ele>436.2</ele>
        <time>2024-10-23T14:16:37.000Z</time>
      </trkpt>
      <trkpt lat="43.21654" lon="6.24196">
        <ele>437.8</ele>
        <time>2024-10-23T14:17:00.000Z</time>
      </trkpt>
      <trkpt lat="43.21647" lon="6.24189">
        <ele>438.5</ele>
        <time>2024-10-23T14:17:10.000Z</time>
      </trkpt>
      <trkpt lat="43.21639" lon="6.24188">
        <ele>439</ele>
        <time>2024-10-23T14:17:23.000Z</time>
      </trkpt>
      <trkpt lat="43.21647" lon="6.24193">
        <ele>439.8</ele>
        <time>2024-10-23T14:23:23.000Z</time>
      </trkpt>
      <trkpt lat="43.21647" lon="6.24194">
        <ele>439.8</ele>
        <time>2024-10-23T14:23:24.000Z</time>
      </trkpt>
      <trkpt lat="43.21656" lon="6.24214">
        <ele>439.3</ele>
        <time>2024-10-23T14:23:44.000Z</time>
      </trkpt>
      <trkpt lat="43.21661" lon="6.24223">
        <ele>438.9</ele>
        <time>2024-10-23T14:23:53.000Z</time>
      </trkpt>
      <trkpt lat="43.21666" lon="6.24232">
        <ele>437.9</ele>
        <time>2024-10-23T14:24:02.000Z</time>
      </trkpt>
      <trkpt lat="43.21671" lon="6.24242">
        <ele>437.2</ele>
        <time>2024-10-23T14:24:11.000Z</time>
      </trkpt>
      <trkpt lat="43.21678" lon="6.24249">
        <ele>436.4</ele>
        <time>2024-10-23T14:24:19.000Z</time>
      </trkpt>
      <trkpt lat="43.21684" lon="6.24257">
        <ele>434.9</ele>
        <time>2024-10-23T14:24:30.000Z</time>
      </trkpt>
      <trkpt lat="43.21685" lon="6.24258">
        <ele>434.8</ele>
        <time>2024-10-23T14:24:31.000Z</time>
      </trkpt>
      <trkpt lat="43.21692" lon="6.24277">
        <ele>432.1</ele>
        <time>2024-10-23T14:24:53.000Z</time>
      </trkpt>
      <trkpt lat="43.21694" lon="6.24289">
        <ele>430.3</ele>
        <time>2024-10-23T14:25:05.000Z</time>
      </trkpt>
      <trkpt lat="43.21698" lon="6.243">
        <ele>428.6</ele>
        <time>2024-10-23T14:25:16.000Z</time>
      </trkpt>
      <trkpt lat="43.21698" lon="6.24311">
        <ele>426.1</ele>
        <time>2024-10-23T14:25:30.000Z</time>
      </trkpt>
      <trkpt lat="43.21696" lon="6.24323">
        <ele>423.6</ele>
        <time>2024-10-23T14:25:46.000Z</time>
      </trkpt>
      <trkpt lat="43.21696" lon="6.24324">
        <ele>423.4</ele>
        <time>2024-10-23T14:25:47.000Z</time>
      </trkpt>
      <trkpt lat="43.21691" lon="6.24346">
        <ele>418.8</ele>
        <time>2024-10-23T14:26:16.000Z</time>
      </trkpt>
      <trkpt lat="43.21689" lon="6.24358">
        <ele>417.3</ele>
        <time>2024-10-23T14:26:27.000Z</time>
      </trkpt>
      <trkpt lat="43.21685" lon="6.24368">
        <ele>416.1</ele>
        <time>2024-10-23T14:26:34.000Z</time>
      </trkpt>
      <trkpt lat="43.21688" lon="6.24379">
        <ele>415.3</ele>
        <time>2024-10-23T14:26:41.000Z</time>
      </trkpt>
      <trkpt lat="43.21689" lon="6.24391">
        <ele>414.4</ele>
        <time>2024-10-23T14:26:49.000Z</time>
      </trkpt>
      <trkpt lat="43.21688" lon="6.24392">
        <ele>414.2</ele>
        <time>2024-10-23T14:26:50.000Z</time>
      </trkpt>
      <trkpt lat="43.21687" lon="6.24413">
        <ele>412.5</ele>
        <time>2024-10-23T14:27:04.000Z</time>
      </trkpt>
      <trkpt lat="43.21685" lon="6.24425">
        <ele>411.9</ele>
        <time>2024-10-23T14:27:11.000Z</time>
      </trkpt>
      <trkpt lat="43.21683" lon="6.24435">
        <ele>411.1</ele>
        <time>2024-10-23T14:27:17.000Z</time>
      </trkpt>
      <trkpt lat="43.2168" lon="6.24446">
        <ele>410.6</ele>
        <time>2024-10-23T14:27:23.000Z</time>
      </trkpt>
      <trkpt lat="43.2168" lon="6.24456">
        <ele>410.2</ele>
        <time>2024-10-23T14:27:29.000Z</time>
      </trkpt>
      <trkpt lat="43.21682" lon="6.24467">
        <ele>409.8</ele>
        <time>2024-10-23T14:27:35.000Z</time>
      </trkpt>
      <trkpt lat="43.21683" lon="6.24477">
        <ele>409.5</ele>
        <time>2024-10-23T14:27:41.000Z</time>
      </trkpt>
      <trkpt lat="43.21685" lon="6.24488">
        <ele>409.2</ele>
        <time>2024-10-23T14:27:47.000Z</time>
      </trkpt>
      <trkpt lat="43.21685" lon="6.245">
        <ele>408.8</ele>
        <time>2024-10-23T14:27:54.000Z</time>
      </trkpt>
      <trkpt lat="43.21685" lon="6.24501">
        <ele>408.8</ele>
        <time>2024-10-23T14:27:55.000Z</time>
      </trkpt>
      <trkpt lat="43.21684" lon="6.24523">
        <ele>407.2</ele>
        <time>2024-10-23T14:28:09.000Z</time>
      </trkpt>
      <trkpt lat="43.21677" lon="6.24516">
        <ele>404.3</ele>
        <time>2024-10-23T14:30:09.000Z</time>
      </trkpt>
      <trkpt lat="43.21677" lon="6.24515">
        <ele>404.3</ele>
        <time>2024-10-23T14:30:10.000Z</time>
      </trkpt>
      <trkpt lat="43.21674" lon="6.24493">
        <ele>404.6</ele>
        <time>2024-10-23T14:30:28.000Z</time>
      </trkpt>
      <trkpt lat="43.21672" lon="6.24481">
        <ele>404.6</ele>
        <time>2024-10-23T14:30:37.000Z</time>
      </trkpt>
      <trkpt lat="43.21671" lon="6.2447">
        <ele>404.6</ele>
        <time>2024-10-23T14:30:44.000Z</time>
      </trkpt>
      <trkpt lat="43.2167" lon="6.24458">
        <ele>404.6</ele>
        <time>2024-10-23T14:30:52.000Z</time>
      </trkpt>
      <trkpt lat="43.2167" lon="6.24446">
        <ele>404.7</ele>
        <time>2024-10-23T14:31:00.000Z</time>
      </trkpt>
      <trkpt lat="43.21669" lon="6.24434">
        <ele>404.5</ele>
        <time>2024-10-23T14:31:07.000Z</time>
      </trkpt>
      <trkpt lat="43.21668" lon="6.24423">
        <ele>404.2</ele>
        <time>2024-10-23T14:31:14.000Z</time>
      </trkpt>
      <trkpt lat="43.21668" lon="6.24422">
        <ele>404.2</ele>
        <time>2024-10-23T14:31:15.000Z</time>
      </trkpt>
      <trkpt lat="43.21664" lon="6.24401">
        <ele>403.8</ele>
        <time>2024-10-23T14:31:28.000Z</time>
      </trkpt>
      <trkpt lat="43.21661" lon="6.2439">
        <ele>403.7</ele>
        <time>2024-10-23T14:31:35.000Z</time>
      </trkpt>
      <trkpt lat="43.21658" lon="6.2438">
        <ele>403.7</ele>
        <time>2024-10-23T14:31:41.000Z</time>
      </trkpt>
      <trkpt lat="43.21654" lon="6.2437">
        <ele>403.5</ele>
        <time>2024-10-23T14:31:48.000Z</time>
      </trkpt>
      <trkpt lat="43.2165" lon="6.24359">
        <ele>403</ele>
        <time>2024-10-23T14:31:56.000Z</time>
      </trkpt>
      <trkpt lat="43.21646" lon="6.2435">
        <ele>402.5</ele>
        <time>2024-10-23T14:32:04.000Z</time>
      </trkpt>
      <trkpt lat="43.2164" lon="6.24342">
        <ele>402</ele>
        <time>2024-10-23T14:32:11.000Z</time>
      </trkpt>
      <trkpt lat="43.21633" lon="6.24335">
        <ele>401.3</ele>
        <time>2024-10-23T14:32:18.000Z</time>
      </trkpt>
      <trkpt lat="43.21632" lon="6.24334">
        <ele>401.2</ele>
        <time>2024-10-23T14:32:19.000Z</time>
      </trkpt>
      <trkpt lat="43.21617" lon="6.24328">
        <ele>400.3</ele>
        <time>2024-10-23T14:32:32.000Z</time>
      </trkpt>
      <trkpt lat="43.21609" lon="6.24327">
        <ele>399.8</ele>
        <time>2024-10-23T14:32:39.000Z</time>
      </trkpt>
      <trkpt lat="43.216" lon="6.24325">
        <ele>399.5</ele>
        <time>2024-10-23T14:32:46.000Z</time>
      </trkpt>
      <trkpt lat="43.21592" lon="6.24323">
        <ele>398.9</ele>
        <time>2024-10-23T14:32:53.000Z</time>
      </trkpt>
      <trkpt lat="43.21584" lon="6.24322">
        <ele>398.1</ele>
        <time>2024-10-23T14:33:00.000Z</time>
      </trkpt>
      <trkpt lat="43.21575" lon="6.2432">
        <ele>397.7</ele>
        <time>2024-10-23T14:33:07.000Z</time>
      </trkpt>
      <trkpt lat="43.21567" lon="6.24318">
        <ele>397.4</ele>
        <time>2024-10-23T14:33:14.000Z</time>
      </trkpt>
      <trkpt lat="43.21559" lon="6.24316">
        <ele>397</ele>
        <time>2024-10-23T14:33:21.000Z</time>
      </trkpt>
      <trkpt lat="43.21557" lon="6.24315">
        <ele>397</ele>
        <time>2024-10-23T14:33:22.000Z</time>
      </trkpt>
      <trkpt lat="43.21545" lon="6.24302">
        <ele>396.1</ele>
        <time>2024-10-23T14:33:35.000Z</time>
      </trkpt>
      <trkpt lat="43.21542" lon="6.24291">
        <ele>395.4</ele>
        <time>2024-10-23T14:33:42.000Z</time>
      </trkpt>
      <trkpt lat="43.2154" lon="6.24279">
        <ele>394.4</ele>
        <time>2024-10-23T14:33:49.000Z</time>
      </trkpt>
      <trkpt lat="43.21539" lon="6.24268">
        <ele>393.6</ele>
        <time>2024-10-23T14:33:56.000Z</time>
      </trkpt>
      <trkpt lat="43.21538" lon="6.24256">
        <ele>392.7</ele>
        <time>2024-10-23T14:34:04.000Z</time>
      </trkpt>
      <trkpt lat="43.21539" lon="6.24245">
        <ele>392</ele>
        <time>2024-10-23T14:34:11.000Z</time>
      </trkpt>
      <trkpt lat="43.21537" lon="6.24233">
        <ele>391.1</ele>
        <time>2024-10-23T14:34:18.000Z</time>
      </trkpt>
      <trkpt lat="43.21535" lon="6.24222">
        <ele>390.3</ele>
        <time>2024-10-23T14:34:25.000Z</time>
      </trkpt>
      <trkpt lat="43.21535" lon="6.24221">
        <ele>390.2</ele>
        <time>2024-10-23T14:34:26.000Z</time>
      </trkpt>
      <trkpt lat="43.21529" lon="6.24201">
        <ele>389.3</ele>
        <time>2024-10-23T14:34:39.000Z</time>
      </trkpt>
      <trkpt lat="43.21524" lon="6.24192">
        <ele>388.9</ele>
        <time>2024-10-23T14:34:47.000Z</time>
      </trkpt>
      <trkpt lat="43.21518" lon="6.24184">
        <ele>388.5</ele>
        <time>2024-10-23T14:34:54.000Z</time>
      </trkpt>
      <trkpt lat="43.2151" lon="6.24178">
        <ele>388.2</ele>
        <time>2024-10-23T14:35:02.000Z</time>
      </trkpt>
      <trkpt lat="43.21503" lon="6.24172">
        <ele>387.9</ele>
        <time>2024-10-23T14:35:09.000Z</time>
      </trkpt>
      <trkpt lat="43.21497" lon="6.24164">
        <ele>387.2</ele>
        <time>2024-10-23T14:35:17.000Z</time>
      </trkpt>
      <trkpt lat="43.2149" lon="6.24158">
        <ele>386.6</ele>
        <time>2024-10-23T14:35:24.000Z</time>
      </trkpt>
      <trkpt lat="43.21483" lon="6.24151">
        <ele>385.9</ele>
        <time>2024-10-23T14:35:31.000Z</time>
      </trkpt>
      <trkpt lat="43.21482" lon="6.24151">
        <ele>385.8</ele>
        <time>2024-10-23T14:35:32.000Z</time>
      </trkpt>
      <trkpt lat="43.21468" lon="6.24139">
        <ele>384</ele>
        <time>2024-10-23T14:35:47.000Z</time>
      </trkpt>
      <trkpt lat="43.2146" lon="6.24134">
        <ele>383.3</ele>
        <time>2024-10-23T14:35:54.000Z</time>
      </trkpt>
      <trkpt lat="43.21453" lon="6.24131">
        <ele>382.8</ele>
        <time>2024-10-23T14:36:01.000Z</time>
      </trkpt>
      <trkpt lat="43.21445" lon="6.24129">
        <ele>382</ele>
        <time>2024-10-23T14:36:08.000Z</time>
      </trkpt>
      <trkpt lat="43.21437" lon="6.24128">
        <ele>381.1</ele>
        <time>2024-10-23T14:36:15.000Z</time>
      </trkpt>
      <trkpt lat="43.21429" lon="6.24127">
        <ele>380.5</ele>
        <time>2024-10-23T14:36:22.000Z</time>
      </trkpt>
      <trkpt lat="43.2142" lon="6.24126">
        <ele>379.6</ele>
        <time>2024-10-23T14:36:29.000Z</time>
      </trkpt>
      <trkpt lat="43.21412" lon="6.24125">
        <ele>378.9</ele>
        <time>2024-10-23T14:36:36.000Z</time>
      </trkpt>
      <trkpt lat="43.21411" lon="6.24125">
        <ele>378.8</ele>
        <time>2024-10-23T14:36:37.000Z</time>
      </trkpt>
      <trkpt lat="43.21395" lon="6.24121">
        <ele>377.8</ele>
        <time>2024-10-23T14:36:50.000Z</time>
      </trkpt>
      <trkpt lat="43.21387" lon="6.24119">
        <ele>377.2</ele>
        <time>2024-10-23T14:36:57.000Z</time>
      </trkpt>
      <trkpt lat="43.21379" lon="6.24116">
        <ele>376.7</ele>
        <time>2024-10-23T14:37:04.000Z</time>
      </trkpt>
      <trkpt lat="43.21371" lon="6.24112">
        <ele>376.1</ele>
        <time>2024-10-23T14:37:11.000Z</time>
      </trkpt>
      <trkpt lat="43.21363" lon="6.2411">
        <ele>374.9</ele>
        <time>2024-10-23T14:37:24.000Z</time>
      </trkpt>
      <trkpt lat="43.21354" lon="6.24111">
        <ele>373.3</ele>
        <time>2024-10-23T14:38:02.000Z</time>
      </trkpt>
      <trkpt lat="43.21353" lon="6.24111">
        <ele>373.3</ele>
        <time>2024-10-23T14:38:03.000Z</time>
      </trkpt>
      <trkpt lat="43.21337" lon="6.24117">
        <ele>372.6</ele>
        <time>2024-10-23T14:38:23.000Z</time>
      </trkpt>
      <trkpt lat="43.21329" lon="6.24121">
        <ele>372.6</ele>
        <time>2024-10-23T14:38:32.000Z</time>
      </trkpt>
      <trkpt lat="43.21321" lon="6.24126">
        <ele>373</ele>
        <time>2024-10-23T14:38:44.000Z</time>
      </trkpt>
      <trkpt lat="43.21312" lon="6.24129">
        <ele>374.1</ele>
        <time>2024-10-23T14:38:56.000Z</time>
      </trkpt>
      <trkpt lat="43.21304" lon="6.24132">
        <ele>376.4</ele>
        <time>2024-10-23T14:39:13.000Z</time>
      </trkpt>
      <trkpt lat="43.21303" lon="6.24132">
        <ele>376.5</ele>
        <time>2024-10-23T14:39:14.000Z</time>
      </trkpt>
      <trkpt lat="43.21287" lon="6.24138">
        <ele>380.8</ele>
        <time>2024-10-23T14:39:45.000Z</time>
      </trkpt>
      <trkpt lat="43.21279" lon="6.24143">
        <ele>383.2</ele>
        <time>2024-10-23T14:40:01.000Z</time>
      </trkpt>
      <trkpt lat="43.21273" lon="6.24151">
        <ele>384.4</ele>
        <time>2024-10-23T14:40:13.000Z</time>
      </trkpt>
      <trkpt lat="43.21267" lon="6.24158">
        <ele>385.4</ele>
        <time>2024-10-23T14:40:23.000Z</time>
      </trkpt>
      <trkpt lat="43.21266" lon="6.24159">
        <ele>385.5</ele>
        <time>2024-10-23T14:40:24.000Z</time>
      </trkpt>
      <trkpt lat="43.21253" lon="6.24172">
        <ele>387.9</ele>
        <time>2024-10-23T14:40:47.000Z</time>
      </trkpt>
      <trkpt lat="43.21246" lon="6.24179">
        <ele>389.4</ele>
        <time>2024-10-23T14:41:00.000Z</time>
      </trkpt>
      <trkpt lat="43.21239" lon="6.24185">
        <ele>390.8</ele>
        <time>2024-10-23T14:41:12.000Z</time>
      </trkpt>
      <trkpt lat="43.21232" lon="6.24193">
        <ele>392.4</ele>
        <time>2024-10-23T14:41:25.000Z</time>
      </trkpt>
      <trkpt lat="43.21232" lon="6.24193">
        <ele>392.5</ele>
        <time>2024-10-23T14:41:26.000Z</time>
      </trkpt>
      <trkpt lat="43.21217" lon="6.24201">
        <ele>394.9</ele>
        <time>2024-10-23T14:41:49.000Z</time>
      </trkpt>
      <trkpt lat="43.21209" lon="6.24206">
        <ele>398.1</ele>
        <time>2024-10-23T14:42:10.000Z</time>
      </trkpt>
      <trkpt lat="43.21205" lon="6.24195">
        <ele>402.1</ele>
        <time>2024-10-23T14:43:46.000Z</time>
      </trkpt>
      <trkpt lat="43.21205" lon="6.24194">
        <ele>402.2</ele>
        <time>2024-10-23T14:43:47.000Z</time>
      </trkpt>
      <trkpt lat="43.21204" lon="6.24207">
        <ele>400.5</ele>
        <time>2024-10-23T14:49:18.000Z</time>
      </trkpt>
      <trkpt lat="43.21204" lon="6.24208">
        <ele>400.5</ele>
        <time>2024-10-23T14:49:19.000Z</time>
      </trkpt>
      <trkpt lat="43.21207" lon="6.24211">
        <ele>399.4</ele>
        <time>2024-10-23T14:50:19.000Z</time>
      </trkpt>
      <trkpt lat="43.21207" lon="6.24211">
        <ele>399.4</ele>
        <time>2024-10-23T14:50:20.000Z</time>
      </trkpt>
      <trkpt lat="43.21222" lon="6.24204">
        <ele>396.3</ele>
        <time>2024-10-23T14:50:57.000Z</time>
      </trkpt>
      <trkpt lat="43.2123" lon="6.24199">
        <ele>395</ele>
        <time>2024-10-23T14:51:08.000Z</time>
      </trkpt>
      <trkpt lat="43.21236" lon="6.24192">
        <ele>393.6</ele>
        <time>2024-10-23T14:51:16.000Z</time>
      </trkpt>
      <trkpt lat="43.21244" lon="6.24186">
        <ele>392.6</ele>
        <time>2024-10-23T14:51:25.000Z</time>
      </trkpt>
      <trkpt lat="43.21245" lon="6.24185">
        <ele>392.5</ele>
        <time>2024-10-23T14:51:26.000Z</time>
      </trkpt>
      <trkpt lat="43.21258" lon="6.24172">
        <ele>389.9</ele>
        <time>2024-10-23T14:51:45.000Z</time>
      </trkpt>
      <trkpt lat="43.21265" lon="6.24166">
        <ele>388.3</ele>
        <time>2024-10-23T14:51:55.000Z</time>
      </trkpt>
      <trkpt lat="43.21269" lon="6.24156">
        <ele>387.2</ele>
        <time>2024-10-23T14:52:02.000Z</time>
      </trkpt>
      <trkpt lat="43.21276" lon="6.2415">
        <ele>386.1</ele>
        <time>2024-10-23T14:52:09.000Z</time>
      </trkpt>
      <trkpt lat="43.21283" lon="6.24142">
        <ele>384.6</ele>
        <time>2024-10-23T14:52:20.000Z</time>
      </trkpt>
      <trkpt lat="43.2129" lon="6.24138">
        <ele>383</ele>
        <time>2024-10-23T14:52:31.000Z</time>
      </trkpt>
      <trkpt lat="43.21291" lon="6.24137">
        <ele>382.8</ele>
        <time>2024-10-23T14:52:32.000Z</time>
      </trkpt>
      <trkpt lat="43.21307" lon="6.24132">
        <ele>378.2</ele>
        <time>2024-10-23T14:52:56.000Z</time>
      </trkpt>
      <trkpt lat="43.21315" lon="6.24129">
        <ele>376.4</ele>
        <time>2024-10-23T14:53:05.000Z</time>
      </trkpt>
      <trkpt lat="43.21323" lon="6.24126">
        <ele>374.9</ele>
        <time>2024-10-23T14:53:12.000Z</time>
      </trkpt>
      <trkpt lat="43.21331" lon="6.24121">
        <ele>373.5</ele>
        <time>2024-10-23T14:53:20.000Z</time>
      </trkpt>
      <trkpt lat="43.21338" lon="6.24117">
        <ele>372.9</ele>
        <time>2024-10-23T14:53:27.000Z</time>
      </trkpt>
      <trkpt lat="43.21346" lon="6.24115">
        <ele>372.8</ele>
        <time>2024-10-23T14:53:34.000Z</time>
      </trkpt>
      <trkpt lat="43.21347" lon="6.24114">
        <ele>372.7</ele>
        <time>2024-10-23T14:53:35.000Z</time>
      </trkpt>
      <trkpt lat="43.21359" lon="6.24103">
        <ele>372.5</ele>
        <time>2024-10-23T14:54:07.000Z</time>
      </trkpt>
      <trkpt lat="43.21359" lon="6.24092">
        <ele>372.5</ele>
        <time>2024-10-23T14:54:16.000Z</time>
      </trkpt>
      <trkpt lat="43.21359" lon="6.2408">
        <ele>372.2</ele>
        <time>2024-10-23T14:54:26.000Z</time>
      </trkpt>
      <trkpt lat="43.21361" lon="6.24069">
        <ele>371.5</ele>
        <time>2024-10-23T14:54:35.000Z</time>
      </trkpt>
      <trkpt lat="43.21361" lon="6.24067">
        <ele>371.5</ele>
        <time>2024-10-23T14:54:36.000Z</time>
      </trkpt>
      <trkpt lat="43.21367" lon="6.24046">
        <ele>370.2</ele>
        <time>2024-10-23T14:54:53.000Z</time>
      </trkpt>
      <trkpt lat="43.2137" lon="6.24036">
        <ele>369.4</ele>
        <time>2024-10-23T14:55:01.000Z</time>
      </trkpt>
      <trkpt lat="43.21373" lon="6.24025">
        <ele>369</ele>
        <time>2024-10-23T14:55:08.000Z</time>
      </trkpt>
      <trkpt lat="43.21377" lon="6.24015">
        <ele>368.5</ele>
        <time>2024-10-23T14:55:15.000Z</time>
      </trkpt>
      <trkpt lat="43.2138" lon="6.24005">
        <ele>367.9</ele>
        <time>2024-10-23T14:55:23.000Z</time>
      </trkpt>
      <trkpt lat="43.21384" lon="6.23994">
        <ele>367.3</ele>
        <time>2024-10-23T14:55:32.000Z</time>
      </trkpt>
      <trkpt lat="43.21388" lon="6.23983">
        <ele>366.5</ele>
        <time>2024-10-23T14:55:40.000Z</time>
      </trkpt>
      <trkpt lat="43.21388" lon="6.23982">
        <ele>366.4</ele>
        <time>2024-10-23T14:55:41.000Z</time>
      </trkpt>
      <trkpt lat="43.21394" lon="6.23961">
        <ele>365.1</ele>
        <time>2024-10-23T14:55:56.000Z</time>
      </trkpt>
      <trkpt lat="43.21395" lon="6.2395">
        <ele>364.2</ele>
        <time>2024-10-23T14:56:04.000Z</time>
      </trkpt>
      <trkpt lat="43.21394" lon="6.23938">
        <ele>363.4</ele>
        <time>2024-10-23T14:56:13.000Z</time>
      </trkpt>
      <trkpt lat="43.21393" lon="6.23926">
        <ele>362.7</ele>
        <time>2024-10-23T14:56:20.000Z</time>
      </trkpt>
      <trkpt lat="43.21393" lon="6.23914">
        <ele>362</ele>
        <time>2024-10-23T14:56:28.000Z</time>
      </trkpt>
      <trkpt lat="43.2139" lon="6.23903">
        <ele>361.5</ele>
        <time>2024-10-23T14:56:35.000Z</time>
      </trkpt>
      <trkpt lat="43.21388" lon="6.23893">
        <ele>360.6</ele>
        <time>2024-10-23T14:56:42.000Z</time>
      </trkpt>
      <trkpt lat="43.21387" lon="6.23892">
        <ele>360.6</ele>
        <time>2024-10-23T14:56:43.000Z</time>
      </trkpt>
      <trkpt lat="43.21382" lon="6.23871">
        <ele>359.2</ele>
        <time>2024-10-23T14:56:58.000Z</time>
      </trkpt>
      <trkpt lat="43.21379" lon="6.23859">
        <ele>358.4</ele>
        <time>2024-10-23T14:57:07.000Z</time>
      </trkpt>
      <trkpt lat="43.21376" lon="6.2385">
        <ele>357.7</ele>
        <time>2024-10-23T14:57:14.000Z</time>
      </trkpt>
      <trkpt lat="43.21372" lon="6.23839">
        <ele>357</ele>
        <time>2024-10-23T14:57:22.000Z</time>
      </trkpt>
      <trkpt lat="43.21368" lon="6.2383">
        <ele>356.1</ele>
        <time>2024-10-23T14:57:29.000Z</time>
      </trkpt>
      <trkpt lat="43.21363" lon="6.2382">
        <ele>355.4</ele>
        <time>2024-10-23T14:57:36.000Z</time>
      </trkpt>
      <trkpt lat="43.21359" lon="6.2381">
        <ele>354.8</ele>
        <time>2024-10-23T14:57:44.000Z</time>
      </trkpt>
      <trkpt lat="43.21359" lon="6.23809">
        <ele>354.8</ele>
        <time>2024-10-23T14:57:45.000Z</time>
      </trkpt>
      <trkpt lat="43.21351" lon="6.23789">
        <ele>353.2</ele>
        <time>2024-10-23T14:58:01.000Z</time>
      </trkpt>
      <trkpt lat="43.21348" lon="6.23778">
        <ele>352.4</ele>
        <time>2024-10-23T14:58:09.000Z</time>
      </trkpt>
      <trkpt lat="43.21344" lon="6.23767">
        <ele>351.5</ele>
        <time>2024-10-23T14:58:17.000Z</time>
      </trkpt>
      <trkpt lat="43.21342" lon="6.23757">
        <ele>350.3</ele>
        <time>2024-10-23T14:58:25.000Z</time>
      </trkpt>
      <trkpt lat="43.21339" lon="6.23747">
        <ele>349.2</ele>
        <time>2024-10-23T14:58:32.000Z</time>
      </trkpt>
      <trkpt lat="43.21336" lon="6.23737">
        <ele>348.4</ele>
        <time>2024-10-23T14:58:39.000Z</time>
      </trkpt>
      <trkpt lat="43.21332" lon="6.23725">
        <ele>347.8</ele>
        <time>2024-10-23T14:58:48.000Z</time>
      </trkpt>
      <trkpt lat="43.21332" lon="6.23724">
        <ele>347.7</ele>
        <time>2024-10-23T14:58:49.000Z</time>
      </trkpt>
      <trkpt lat="43.21323" lon="6.23705">
        <ele>346.8</ele>
        <time>2024-10-23T14:59:04.000Z</time>
      </trkpt>
      <trkpt lat="43.21328" lon="6.23695">
        <ele>345.4</ele>
        <time>2024-10-23T15:01:37.000Z</time>
      </trkpt>
      <trkpt lat="43.21328" lon="6.23695">
        <ele>345.4</ele>
        <time>2024-10-23T15:01:38.000Z</time>
      </trkpt>
      <trkpt lat="43.21344" lon="6.23686">
        <ele>345</ele>
        <time>2024-10-23T15:02:00.000Z</time>
      </trkpt>
      <trkpt lat="43.21352" lon="6.23683">
        <ele>344.2</ele>
        <time>2024-10-23T15:02:09.000Z</time>
      </trkpt>
      <trkpt lat="43.2136" lon="6.23679">
        <ele>343.8</ele>
        <time>2024-10-23T15:02:17.000Z</time>
      </trkpt>
      <trkpt lat="43.21368" lon="6.23675">
        <ele>343.2</ele>
        <time>2024-10-23T15:02:25.000Z</time>
      </trkpt>
      <trkpt lat="43.21377" lon="6.23672">
        <ele>342.2</ele>
        <time>2024-10-23T15:02:33.000Z</time>
      </trkpt>
      <trkpt lat="43.21385" lon="6.23669">
        <ele>341.9</ele>
        <time>2024-10-23T15:02:42.000Z</time>
      </trkpt>
      <trkpt lat="43.21386" lon="6.23668">
        <ele>341.8</ele>
        <time>2024-10-23T15:02:43.000Z</time>
      </trkpt>
      <trkpt lat="43.21401" lon="6.23661">
        <ele>340.9</ele>
        <time>2024-10-23T15:02:59.000Z</time>
      </trkpt>
      <trkpt lat="43.21409" lon="6.23658">
        <ele>340.1</ele>
        <time>2024-10-23T15:03:07.000Z</time>
      </trkpt>
      <trkpt lat="43.21418" lon="6.23655">
        <ele>339.5</ele>
        <time>2024-10-23T15:03:17.000Z</time>
      </trkpt>
      <trkpt lat="43.21426" lon="6.23651">
        <ele>339</ele>
        <time>2024-10-23T15:03:25.000Z</time>
      </trkpt>
      <trkpt lat="43.21434" lon="6.23647">
        <ele>338.5</ele>
        <time>2024-10-23T15:03:34.000Z</time>
      </trkpt>
      <trkpt lat="43.21442" lon="6.23644">
        <ele>338.1</ele>
        <time>2024-10-23T15:03:41.000Z</time>
      </trkpt>
      <trkpt lat="43.2145" lon="6.23641">
        <ele>337.7</ele>
        <time>2024-10-23T15:03:48.000Z</time>
      </trkpt>
      <trkpt lat="43.21451" lon="6.2364">
        <ele>337.7</ele>
        <time>2024-10-23T15:03:49.000Z</time>
      </trkpt>
      <trkpt lat="43.21466" lon="6.23633">
        <ele>336.2</ele>
        <time>2024-10-23T15:04:04.000Z</time>
      </trkpt>
      <trkpt lat="43.21473" lon="6.23629">
        <ele>335.9</ele>
        <time>2024-10-23T15:04:13.000Z</time>
      </trkpt>
      <trkpt lat="43.2148" lon="6.23621">
        <ele>335.2</ele>
        <time>2024-10-23T15:04:21.000Z</time>
      </trkpt>
      <trkpt lat="43.21485" lon="6.23612">
        <ele>334.6</ele>
        <time>2024-10-23T15:04:27.000Z</time>
      </trkpt>
      <trkpt lat="43.21489" lon="6.23602">
        <ele>334</ele>
        <time>2024-10-23T15:04:36.000Z</time>
      </trkpt>
      <trkpt lat="43.21493" lon="6.23591">
        <ele>333.5</ele>
        <time>2024-10-23T15:04:44.000Z</time>
      </trkpt>
      <trkpt lat="43.21497" lon="6.23581">
        <ele>332.9</ele>
        <time>2024-10-23T15:04:51.000Z</time>
      </trkpt>
      <trkpt lat="43.21498" lon="6.23579">
        <ele>332.8</ele>
        <time>2024-10-23T15:04:52.000Z</time>
      </trkpt>
      <trkpt lat="43.21506" lon="6.23561">
        <ele>332</ele>
        <time>2024-10-23T15:05:04.000Z</time>
      </trkpt>
      <trkpt lat="43.21511" lon="6.23551">
        <ele>331.5</ele>
        <time>2024-10-23T15:05:11.000Z</time>
      </trkpt>
      <trkpt lat="43.21514" lon="6.23541">
        <ele>330.8</ele>
        <time>2024-10-23T15:05:19.000Z</time>
      </trkpt>
      <trkpt lat="43.21517" lon="6.23531">
        <ele>330.6</ele>
        <time>2024-10-23T15:05:27.000Z</time>
      </trkpt>
      <trkpt lat="43.21521" lon="6.2352">
        <ele>330.3</ele>
        <time>2024-10-23T15:05:34.000Z</time>
      </trkpt>
      <trkpt lat="43.21522" lon="6.23508">
        <ele>329</ele>
        <time>2024-10-23T15:05:42.000Z</time>
      </trkpt>
      <trkpt lat="43.21522" lon="6.23497">
        <ele>328.5</ele>
        <time>2024-10-23T15:05:49.000Z</time>
      </trkpt>
      <trkpt lat="43.21522" lon="6.23486">
        <ele>327.6</ele>
        <time>2024-10-23T15:05:56.000Z</time>
      </trkpt>
      <trkpt lat="43.21522" lon="6.23485">
        <ele>327.4</ele>
        <time>2024-10-23T15:05:57.000Z</time>
      </trkpt>
      <trkpt lat="43.21519" lon="6.23463">
        <ele>325.6</ele>
        <time>2024-10-23T15:06:12.000Z</time>
      </trkpt>
      <trkpt lat="43.21515" lon="6.23452">
        <ele>324.8</ele>
        <time>2024-10-23T15:06:20.000Z</time>
      </trkpt>
      <trkpt lat="43.21512" lon="6.23441">
        <ele>323.7</ele>
        <time>2024-10-23T15:06:27.000Z</time>
      </trkpt>
      <trkpt lat="43.21509" lon="6.23431">
        <ele>323</ele>
        <time>2024-10-23T15:06:33.000Z</time>
      </trkpt>
      <trkpt lat="43.21506" lon="6.2342">
        <ele>322.5</ele>
        <time>2024-10-23T15:06:40.000Z</time>
      </trkpt>
      <trkpt lat="43.21503" lon="6.2341">
        <ele>321.8</ele>
        <time>2024-10-23T15:06:46.000Z</time>
      </trkpt>
      <trkpt lat="43.21501" lon="6.23398">
        <ele>321</ele>
        <time>2024-10-23T15:06:53.000Z</time>
      </trkpt>
      <trkpt lat="43.21499" lon="6.23387">
        <ele>320.6</ele>
        <time>2024-10-23T15:07:00.000Z</time>
      </trkpt>
      <trkpt lat="43.21499" lon="6.23385">
        <ele>320.6</ele>
        <time>2024-10-23T15:07:01.000Z</time>
      </trkpt>
      <trkpt lat="43.21497" lon="6.23364">
        <ele>319.3</ele>
        <time>2024-10-23T15:07:14.000Z</time>
      </trkpt>
      <trkpt lat="43.21496" lon="6.23352">
        <ele>318.8</ele>
        <time>2024-10-23T15:07:21.000Z</time>
      </trkpt>
      <trkpt lat="43.21497" lon="6.2334">
        <ele>317.5</ele>
        <time>2024-10-23T15:07:29.000Z</time>
      </trkpt>
      <trkpt lat="43.21501" lon="6.23329">
        <ele>317.1</ele>
        <time>2024-10-23T15:07:36.000Z</time>
      </trkpt>
      <trkpt lat="43.21506" lon="6.23319">
        <ele>316.8</ele>
        <time>2024-10-23T15:07:44.000Z</time>
      </trkpt>
      <trkpt lat="43.21508" lon="6.23308">
        <ele>316.1</ele>
        <time>2024-10-23T15:07:51.000Z</time>
      </trkpt>
      <trkpt lat="43.2151" lon="6.23298">
        <ele>315.5</ele>
        <time>2024-10-23T15:07:57.000Z</time>
      </trkpt>
      <trkpt lat="43.21512" lon="6.23287">
        <ele>315</ele>
        <time>2024-10-23T15:08:03.000Z</time>
      </trkpt>
      <trkpt lat="43.21512" lon="6.23285">
        <ele>314.9</ele>
        <time>2024-10-23T15:08:04.000Z</time>
      </trkpt>
      <trkpt lat="43.21513" lon="6.23264">
        <ele>313.7</ele>
        <time>2024-10-23T15:08:16.000Z</time>
      </trkpt>
      <trkpt lat="43.21513" lon="6.23252">
        <ele>312.8</ele>
        <time>2024-10-23T15:08:23.000Z</time>
      </trkpt>
      <trkpt lat="43.21513" lon="6.23241">
        <ele>312.1</ele>
        <time>2024-10-23T15:08:30.000Z</time>
      </trkpt>
      <trkpt lat="43.21512" lon="6.23229">
        <ele>311.6</ele>
        <time>2024-10-23T15:08:38.000Z</time>
      </trkpt>
      <trkpt lat="43.21508" lon="6.23218">
        <ele>311</ele>
        <time>2024-10-23T15:08:45.000Z</time>
      </trkpt>
      <trkpt lat="43.21504" lon="6.23209">
        <ele>310.4</ele>
        <time>2024-10-23T15:08:52.000Z</time>
      </trkpt>
      <trkpt lat="43.21499" lon="6.232">
        <ele>309.8</ele>
        <time>2024-10-23T15:08:58.000Z</time>
      </trkpt>
      <trkpt lat="43.21493" lon="6.23191">
        <ele>309</ele>
        <time>2024-10-23T15:09:05.000Z</time>
      </trkpt>
      <trkpt lat="43.21492" lon="6.2319">
        <ele>309</ele>
        <time>2024-10-23T15:09:06.000Z</time>
      </trkpt>
      <trkpt lat="43.21483" lon="6.23173">
        <ele>307.9</ele>
        <time>2024-10-23T15:09:19.000Z</time>
      </trkpt>
      <trkpt lat="43.21479" lon="6.23163">
        <ele>307.1</ele>
        <time>2024-10-23T15:09:26.000Z</time>
      </trkpt>
      <trkpt lat="43.21475" lon="6.23152">
        <ele>306.3</ele>
        <time>2024-10-23T15:09:34.000Z</time>
      </trkpt>
      <trkpt lat="43.21472" lon="6.23142">
        <ele>305.6</ele>
        <time>2024-10-23T15:09:41.000Z</time>
      </trkpt>
      <trkpt lat="43.21468" lon="6.23131">
        <ele>305.1</ele>
        <time>2024-10-23T15:09:48.000Z</time>
      </trkpt>
      <trkpt lat="43.21465" lon="6.23121">
        <ele>304.6</ele>
        <time>2024-10-23T15:09:55.000Z</time>
      </trkpt>
      <trkpt lat="43.21462" lon="6.23111">
        <ele>304.3</ele>
        <time>2024-10-23T15:10:02.000Z</time>
      </trkpt>
      <trkpt lat="43.21458" lon="6.23101">
        <ele>303.4</ele>
        <time>2024-10-23T15:10:09.000Z</time>
      </trkpt>
      <trkpt lat="43.21457" lon="6.23099">
        <ele>303.4</ele>
        <time>2024-10-23T15:10:10.000Z</time>
      </trkpt>
      <trkpt lat="43.2145" lon="6.23081">
        <ele>302.1</ele>
        <time>2024-10-23T15:10:23.000Z</time>
      </trkpt>
      <trkpt lat="43.21446" lon="6.23071">
        <ele>301.4</ele>
        <time>2024-10-23T15:10:29.000Z</time>
      </trkpt>
      <trkpt lat="43.21442" lon="6.23062">
        <ele>300.9</ele>
        <time>2024-10-23T15:10:35.000Z</time>
      </trkpt>
      <trkpt lat="43.21436" lon="6.23052">
        <ele>300.2</ele>
        <time>2024-10-23T15:10:42.000Z</time>
      </trkpt>
      <trkpt lat="43.21431" lon="6.23043">
        <ele>299.9</ele>
        <time>2024-10-23T15:10:49.000Z</time>
      </trkpt>
      <trkpt lat="43.21424" lon="6.23035">
        <ele>299.2</ele>
        <time>2024-10-23T15:10:56.000Z</time>
      </trkpt>
      <trkpt lat="43.21418" lon="6.23027">
        <ele>298.5</ele>
        <time>2024-10-23T15:11:03.000Z</time>
      </trkpt>
      <trkpt lat="43.21411" lon="6.23019">
        <ele>297.7</ele>
        <time>2024-10-23T15:11:11.000Z</time>
      </trkpt>
      <trkpt lat="43.2141" lon="6.23017">
        <ele>297.6</ele>
        <time>2024-10-23T15:11:12.000Z</time>
      </trkpt>
      <trkpt lat="43.214" lon="6.23001">
        <ele>297.2</ele>
        <time>2024-10-23T15:11:24.000Z</time>
      </trkpt>
      <trkpt lat="43.21394" lon="6.22991">
        <ele>296.8</ele>
        <time>2024-10-23T15:11:31.000Z</time>
      </trkpt>
      <trkpt lat="43.21389" lon="6.22982">
        <ele>295.9</ele>
        <time>2024-10-23T15:11:38.000Z</time>
      </trkpt>
      <trkpt lat="43.21384" lon="6.22973">
        <ele>295.3</ele>
        <time>2024-10-23T15:11:45.000Z</time>
      </trkpt>
      <trkpt lat="43.2138" lon="6.22963">
        <ele>295</ele>
        <time>2024-10-23T15:11:51.000Z</time>
      </trkpt>
      <trkpt lat="43.21377" lon="6.22952">
        <ele>294.8</ele>
        <time>2024-10-23T15:11:57.000Z</time>
      </trkpt>
      <trkpt lat="43.21374" lon="6.22941">
        <ele>294.4</ele>
        <time>2024-10-23T15:12:03.000Z</time>
      </trkpt>
      <trkpt lat="43.21371" lon="6.22932">
        <ele>293.9</ele>
        <time>2024-10-23T15:12:09.000Z</time>
      </trkpt>
      <trkpt lat="43.21368" lon="6.22921">
        <ele>293.4</ele>
        <time>2024-10-23T15:12:15.000Z</time>
      </trkpt>
      <trkpt lat="43.21368" lon="6.2292">
        <ele>293.3</ele>
        <time>2024-10-23T15:12:16.000Z</time>
      </trkpt>
      <trkpt lat="43.21362" lon="6.22901">
        <ele>292.2</ele>
        <time>2024-10-23T15:12:29.000Z</time>
      </trkpt>
      <trkpt lat="43.2136" lon="6.2289">
        <ele>292</ele>
        <time>2024-10-23T15:12:36.000Z</time>
      </trkpt>
      <trkpt lat="43.21357" lon="6.22878">
        <ele>291.2</ele>
        <time>2024-10-23T15:12:43.000Z</time>
      </trkpt>
      <trkpt lat="43.21354" lon="6.22868">
        <ele>290.8</ele>
        <time>2024-10-23T15:12:49.000Z</time>
      </trkpt>
      <trkpt lat="43.21351" lon="6.22857">
        <ele>290.1</ele>
        <time>2024-10-23T15:12:56.000Z</time>
      </trkpt>
      <trkpt lat="43.21349" lon="6.22847">
        <ele>289.4</ele>
        <time>2024-10-23T15:13:02.000Z</time>
      </trkpt>
      <trkpt lat="43.21344" lon="6.22837">
        <ele>288.7</ele>
        <time>2024-10-23T15:13:09.000Z</time>
      </trkpt>
      <trkpt lat="43.2134" lon="6.22826">
        <ele>288.3</ele>
        <time>2024-10-23T15:13:16.000Z</time>
      </trkpt>
      <trkpt lat="43.21339" lon="6.22825">
        <ele>288.2</ele>
        <time>2024-10-23T15:13:17.000Z</time>
      </trkpt>
      <trkpt lat="43.21329" lon="6.22808">
        <ele>287.1</ele>
        <time>2024-10-23T15:13:31.000Z</time>
      </trkpt>
      <trkpt lat="43.21322" lon="6.22803">
        <ele>286.3</ele>
        <time>2024-10-23T15:13:38.000Z</time>
      </trkpt>
      <trkpt lat="43.21314" lon="6.22799">
        <ele>285.4</ele>
        <time>2024-10-23T15:13:44.000Z</time>
      </trkpt>
      <trkpt lat="43.21306" lon="6.22796">
        <ele>284.8</ele>
        <time>2024-10-23T15:13:51.000Z</time>
      </trkpt>
      <trkpt lat="43.21298" lon="6.22793">
        <ele>284.3</ele>
        <time>2024-10-23T15:13:58.000Z</time>
      </trkpt>
      <trkpt lat="43.2129" lon="6.22789">
        <ele>284</ele>
        <time>2024-10-23T15:14:05.000Z</time>
      </trkpt>
      <trkpt lat="43.21283" lon="6.22786">
        <ele>283.6</ele>
        <time>2024-10-23T15:14:12.000Z</time>
      </trkpt>
      <trkpt lat="43.21275" lon="6.22782">
        <ele>283.2</ele>
        <time>2024-10-23T15:14:19.000Z</time>
      </trkpt>
      <trkpt lat="43.21274" lon="6.22781">
        <ele>283.1</ele>
        <time>2024-10-23T15:14:20.000Z</time>
      </trkpt>
      <trkpt lat="43.2126" lon="6.22772">
        <ele>282.1</ele>
        <time>2024-10-23T15:14:34.000Z</time>
      </trkpt>
      <trkpt lat="43.21252" lon="6.22765">
        <ele>281.4</ele>
        <time>2024-10-23T15:14:42.000Z</time>
      </trkpt>
      <trkpt lat="43.21245" lon="6.22759">
        <ele>280.7</ele>
        <time>2024-10-23T15:14:49.000Z</time>
      </trkpt>
      <trkpt lat="43.21239" lon="6.22752">
        <ele>280.1</ele>
        <time>2024-10-23T15:14:56.000Z</time>
      </trkpt>
      <trkpt lat="43.21232" lon="6.22746">
        <ele>279.3</ele>
        <time>2024-10-23T15:15:03.000Z</time>
      </trkpt>
      <trkpt lat="43.21225" lon="6.2274">
        <ele>278.6</ele>
        <time>2024-10-23T15:15:10.000Z</time>
      </trkpt>
      <trkpt lat="43.21216" lon="6.22736">
        <ele>278.7</ele>
        <time>2024-10-23T15:15:18.000Z</time>
      </trkpt>
      <trkpt lat="43.21208" lon="6.22733">
        <ele>277.9</ele>
        <time>2024-10-23T15:15:26.000Z</time>
      </trkpt>
      <trkpt lat="43.21207" lon="6.22733">
        <ele>277.8</ele>
        <time>2024-10-23T15:15:27.000Z</time>
      </trkpt>
      <trkpt lat="43.21191" lon="6.22735">
        <ele>276.7</ele>
        <time>2024-10-23T15:15:41.000Z</time>
      </trkpt>
      <trkpt lat="43.21183" lon="6.22736">
        <ele>276.2</ele>
        <time>2024-10-23T15:15:49.000Z</time>
      </trkpt>
      <trkpt lat="43.21175" lon="6.22739">
        <ele>275.5</ele>
        <time>2024-10-23T15:15:56.000Z</time>
      </trkpt>
      <trkpt lat="43.21166" lon="6.2274">
        <ele>275</ele>
        <time>2024-10-23T15:16:04.000Z</time>
      </trkpt>
      <trkpt lat="43.21158" lon="6.22741">
        <ele>274.3</ele>
        <time>2024-10-23T15:16:11.000Z</time>
      </trkpt>
      <trkpt lat="43.2115" lon="6.22743">
        <ele>273.5</ele>
        <time>2024-10-23T15:16:19.000Z</time>
      </trkpt>
      <trkpt lat="43.21142" lon="6.22742">
        <ele>272.6</ele>
        <time>2024-10-23T15:16:26.000Z</time>
      </trkpt>
      <trkpt lat="43.21134" lon="6.22739">
        <ele>271.9</ele>
        <time>2024-10-23T15:16:34.000Z</time>
      </trkpt>
      <trkpt lat="43.21133" lon="6.22738">
        <ele>271.8</ele>
        <time>2024-10-23T15:16:35.000Z</time>
      </trkpt>
      <trkpt lat="43.21128" lon="6.2272">
        <ele>270.5</ele>
        <time>2024-10-23T15:16:50.000Z</time>
      </trkpt>
      <trkpt lat="43.2113" lon="6.22709">
        <ele>269.9</ele>
        <time>2024-10-23T15:16:59.000Z</time>
      </trkpt>
      <trkpt lat="43.21132" lon="6.22698">
        <ele>269.2</ele>
        <time>2024-10-23T15:17:06.000Z</time>
      </trkpt>
      <trkpt lat="43.21133" lon="6.22688">
        <ele>269</ele>
        <time>2024-10-23T15:17:12.000Z</time>
      </trkpt>
      <trkpt lat="43.21135" lon="6.22677">
        <ele>268.5</ele>
        <time>2024-10-23T15:17:19.000Z</time>
      </trkpt>
      <trkpt lat="43.21136" lon="6.22665">
        <ele>267.9</ele>
        <time>2024-10-23T15:17:27.000Z</time>
      </trkpt>
      <trkpt lat="43.21138" lon="6.22654">
        <ele>267.4</ele>
        <time>2024-10-23T15:17:35.000Z</time>
      </trkpt>
      <trkpt lat="43.21139" lon="6.22653">
        <ele>267.3</ele>
        <time>2024-10-23T15:17:36.000Z</time>
      </trkpt>
      <trkpt lat="43.21142" lon="6.22633">
        <ele>266.3</ele>
        <time>2024-10-23T15:17:49.000Z</time>
      </trkpt>
      <trkpt lat="43.21144" lon="6.22621">
        <ele>265.8</ele>
        <time>2024-10-23T15:17:57.000Z</time>
      </trkpt>
      <trkpt lat="43.21146" lon="6.2261">
        <ele>265.4</ele>
        <time>2024-10-23T15:18:05.000Z</time>
      </trkpt>
      <trkpt lat="43.21149" lon="6.22598">
        <ele>264.9</ele>
        <time>2024-10-23T15:18:13.000Z</time>
      </trkpt>
      <trkpt lat="43.21151" lon="6.22587">
        <ele>264.4</ele>
        <time>2024-10-23T15:18:20.000Z</time>
      </trkpt>
      <trkpt lat="43.21153" lon="6.22576">
        <ele>264.3</ele>
        <time>2024-10-23T15:18:27.000Z</time>
      </trkpt>
      <trkpt lat="43.21157" lon="6.22567">
        <ele>263.9</ele>
        <time>2024-10-23T15:18:34.000Z</time>
      </trkpt>
      <trkpt lat="43.21162" lon="6.22557">
        <ele>263.5</ele>
        <time>2024-10-23T15:18:42.000Z</time>
      </trkpt>
      <trkpt lat="43.21163" lon="6.22555">
        <ele>263.4</ele>
        <time>2024-10-23T15:18:43.000Z</time>
      </trkpt>
      <trkpt lat="43.21175" lon="6.22543">
        <ele>263.1</ele>
        <time>2024-10-23T15:18:56.000Z</time>
      </trkpt>
      <trkpt lat="43.21182" lon="6.22537">
        <ele>262.6</ele>
        <time>2024-10-23T15:19:03.000Z</time>
      </trkpt>
      <trkpt lat="43.2119" lon="6.22533">
        <ele>262.1</ele>
        <time>2024-10-23T15:19:11.000Z</time>
      </trkpt>
      <trkpt lat="43.21198" lon="6.22529">
        <ele>261.3</ele>
        <time>2024-10-23T15:19:19.000Z</time>
      </trkpt>
      <trkpt lat="43.21206" lon="6.22526">
        <ele>260.9</ele>
        <time>2024-10-23T15:19:27.000Z</time>
      </trkpt>
      <trkpt lat="43.21214" lon="6.22522">
        <ele>260.7</ele>
        <time>2024-10-23T15:19:35.000Z</time>
      </trkpt>
      <trkpt lat="43.21222" lon="6.22518">
        <ele>260.7</ele>
        <time>2024-10-23T15:19:42.000Z</time>
      </trkpt>
      <trkpt lat="43.2123" lon="6.22515">
        <ele>260.4</ele>
        <time>2024-10-23T15:19:49.000Z</time>
      </trkpt>
      <trkpt lat="43.21231" lon="6.22515">
        <ele>260.3</ele>
        <time>2024-10-23T15:19:50.000Z</time>
      </trkpt>
      <trkpt lat="43.21245" lon="6.22506">
        <ele>259.8</ele>
        <time>2024-10-23T15:20:04.000Z</time>
      </trkpt>
      <trkpt lat="43.21252" lon="6.22501">
        <ele>259.5</ele>
        <time>2024-10-23T15:20:11.000Z</time>
      </trkpt>
      <trkpt lat="43.2126" lon="6.22496">
        <ele>259</ele>
        <time>2024-10-23T15:20:18.000Z</time>
      </trkpt>
      <trkpt lat="43.21267" lon="6.22492">
        <ele>258.7</ele>
        <time>2024-10-23T15:20:25.000Z</time>
      </trkpt>
      <trkpt lat="43.21275" lon="6.22488">
        <ele>258.4</ele>
        <time>2024-10-23T15:20:32.000Z</time>
      </trkpt>
      <trkpt lat="43.21283" lon="6.22484">
        <ele>258</ele>
        <time>2024-10-23T15:20:39.000Z</time>
      </trkpt>
      <trkpt lat="43.21291" lon="6.22482">
        <ele>257.6</ele>
        <time>2024-10-23T15:20:47.000Z</time>
      </trkpt>
      <trkpt lat="43.21299" lon="6.22483">
        <ele>257.3</ele>
        <time>2024-10-23T15:20:55.000Z</time>
      </trkpt>
      <trkpt lat="43.21301" lon="6.22483">
        <ele>257.3</ele>
        <time>2024-10-23T15:20:56.000Z</time>
      </trkpt>
      <trkpt lat="43.21315" lon="6.22487">
        <ele>257.5</ele>
        <time>2024-10-23T15:21:09.000Z</time>
      </trkpt>
      <trkpt lat="43.21322" lon="6.22482">
        <ele>257.3</ele>
        <time>2024-10-23T15:21:16.000Z</time>
      </trkpt>
      <trkpt lat="43.21326" lon="6.22471">
        <ele>257.1</ele>
        <time>2024-10-23T15:21:23.000Z</time>
      </trkpt>
      <trkpt lat="43.21327" lon="6.2246">
        <ele>256.4</ele>
        <time>2024-10-23T15:21:31.000Z</time>
      </trkpt>
      <trkpt lat="43.21327" lon="6.22448">
        <ele>255.6</ele>
        <time>2024-10-23T15:21:39.000Z</time>
      </trkpt>
      <trkpt lat="43.21327" lon="6.22437">
        <ele>254.8</ele>
        <time>2024-10-23T15:21:47.000Z</time>
      </trkpt>
      <trkpt lat="43.21326" lon="6.22424">
        <ele>253.6</ele>
        <time>2024-10-23T15:21:54.000Z</time>
      </trkpt>
      <trkpt lat="43.21326" lon="6.22413">
        <ele>252.8</ele>
        <time>2024-10-23T15:22:00.000Z</time>
      </trkpt>
      <trkpt lat="43.21326" lon="6.22412">
        <ele>252.7</ele>
        <time>2024-10-23T15:22:01.000Z</time>
      </trkpt>
      <trkpt lat="43.21329" lon="6.22393">
        <ele>251.3</ele>
        <time>2024-10-23T15:22:14.000Z</time>
      </trkpt>
      <trkpt lat="43.21334" lon="6.22383">
        <ele>250.9</ele>
        <time>2024-10-23T15:22:21.000Z</time>
      </trkpt>
      <trkpt lat="43.2134" lon="6.22376">
        <ele>250.5</ele>
        <time>2024-10-23T15:22:27.000Z</time>
      </trkpt>
      <trkpt lat="43.21347" lon="6.22369">
        <ele>250.1</ele>
        <time>2024-10-23T15:22:34.000Z</time>
      </trkpt>
      <trkpt lat="43.21354" lon="6.22362">
        <ele>249.6</ele>
        <time>2024-10-23T15:22:41.000Z</time>
      </trkpt>
      <trkpt lat="43.2136" lon="6.22355">
        <ele>249.1</ele>
        <time>2024-10-23T15:22:48.000Z</time>
      </trkpt>
      <trkpt lat="43.21366" lon="6.22348">
        <ele>248.6</ele>
        <time>2024-10-23T15:22:54.000Z</time>
      </trkpt>
      <trkpt lat="43.21372" lon="6.22341">
        <ele>247.9</ele>
        <time>2024-10-23T15:23:01.000Z</time>
      </trkpt>
      <trkpt lat="43.21373" lon="6.22339">
        <ele>247.9</ele>
        <time>2024-10-23T15:23:02.000Z</time>
      </trkpt>
      <trkpt lat="43.21379" lon="6.22319">
        <ele>246.6</ele>
        <time>2024-10-23T15:23:15.000Z</time>
      </trkpt>
      <trkpt lat="43.21381" lon="6.22307">
        <ele>245.9</ele>
        <time>2024-10-23T15:23:22.000Z</time>
      </trkpt>
      <trkpt lat="43.21384" lon="6.22296">
        <ele>245.5</ele>
        <time>2024-10-23T15:23:29.000Z</time>
      </trkpt>
      <trkpt lat="43.21389" lon="6.22285">
        <ele>245</ele>
        <time>2024-10-23T15:23:36.000Z</time>
      </trkpt>
      <trkpt lat="43.21394" lon="6.22275">
        <ele>244.5</ele>
        <time>2024-10-23T15:23:43.000Z</time>
      </trkpt>
      <trkpt lat="43.21401" lon="6.22269">
        <ele>244.2</ele>
        <time>2024-10-23T15:23:50.000Z</time>
      </trkpt>
      <trkpt lat="43.21409" lon="6.22266">
        <ele>243.8</ele>
        <time>2024-10-23T15:23:58.000Z</time>
      </trkpt>
      <trkpt lat="43.21418" lon="6.22266">
        <ele>243.5</ele>
        <time>2024-10-23T15:24:06.000Z</time>
      </trkpt>
      <trkpt lat="43.21419" lon="6.22265">
        <ele>243.5</ele>
        <time>2024-10-23T15:24:07.000Z</time>
      </trkpt>
      <trkpt lat="43.21432" lon="6.22271">
        <ele>242.6</ele>
        <time>2024-10-23T15:24:20.000Z</time>
      </trkpt>
      <trkpt lat="43.21439" lon="6.22278">
        <ele>242.1</ele>
        <time>2024-10-23T15:24:28.000Z</time>
      </trkpt>
      <trkpt lat="43.21447" lon="6.22285">
        <ele>241.9</ele>
        <time>2024-10-23T15:24:35.000Z</time>
      </trkpt>
      <trkpt lat="43.21452" lon="6.22294">
        <ele>241.6</ele>
        <time>2024-10-23T15:24:43.000Z</time>
      </trkpt>
      <trkpt lat="43.21457" lon="6.22304">
        <ele>241.4</ele>
        <time>2024-10-23T15:24:50.000Z</time>
      </trkpt>
      <trkpt lat="43.2146" lon="6.22315">
        <ele>241.1</ele>
        <time>2024-10-23T15:24:57.000Z</time>
      </trkpt>
      <trkpt lat="43.21463" lon="6.22326">
        <ele>240.7</ele>
        <time>2024-10-23T15:25:05.000Z</time>
      </trkpt>
      <trkpt lat="43.21464" lon="6.22338">
        <ele>240.4</ele>
        <time>2024-10-23T15:25:14.000Z</time>
      </trkpt>
      <trkpt lat="43.21464" lon="6.22339">
        <ele>240.3</ele>
        <time>2024-10-23T15:25:15.000Z</time>
      </trkpt>
      <trkpt lat="43.21467" lon="6.2236">
        <ele>239.8</ele>
        <time>2024-10-23T15:25:28.000Z</time>
      </trkpt>
      <trkpt lat="43.21468" lon="6.22372">
        <ele>239.2</ele>
        <time>2024-10-23T15:25:36.000Z</time>
      </trkpt>
      <trkpt lat="43.21469" lon="6.22383">
        <ele>238.5</ele>
        <time>2024-10-23T15:25:44.000Z</time>
      </trkpt>
      <trkpt lat="43.2147" lon="6.22394">
        <ele>238</ele>
        <time>2024-10-23T15:25:52.000Z</time>
      </trkpt>
      <trkpt lat="43.21472" lon="6.22405">
        <ele>238</ele>
        <time>2024-10-23T15:25:58.000Z</time>
      </trkpt>
      <trkpt lat="43.21474" lon="6.22416">
        <ele>237.8</ele>
        <time>2024-10-23T15:26:05.000Z</time>
      </trkpt>
      <trkpt lat="43.21475" lon="6.22427">
        <ele>237.5</ele>
        <time>2024-10-23T15:26:12.000Z</time>
      </trkpt>
      <trkpt lat="43.21478" lon="6.22439">
        <ele>237.3</ele>
        <time>2024-10-23T15:26:19.000Z</time>
      </trkpt>
      <trkpt lat="43.21478" lon="6.2244">
        <ele>237.3</ele>
        <time>2024-10-23T15:26:20.000Z</time>
      </trkpt>
      <trkpt lat="43.21483" lon="6.22461">
        <ele>237.1</ele>
        <time>2024-10-23T15:26:34.000Z</time>
      </trkpt>
      <trkpt lat="43.21485" lon="6.22471">
        <ele>237</ele>
        <time>2024-10-23T15:26:41.000Z</time>
      </trkpt>
      <trkpt lat="43.21488" lon="6.22481">
        <ele>236.7</ele>
        <time>2024-10-23T15:26:48.000Z</time>
      </trkpt>
      <trkpt lat="43.21492" lon="6.22491">
        <ele>236.4</ele>
        <time>2024-10-23T15:26:55.000Z</time>
      </trkpt>
      <trkpt lat="43.21497" lon="6.22501">
        <ele>236.5</ele>
        <time>2024-10-23T15:27:02.000Z</time>
      </trkpt>
      <trkpt lat="43.21502" lon="6.22509">
        <ele>236.5</ele>
        <time>2024-10-23T15:27:08.000Z</time>
      </trkpt>
      <trkpt lat="43.2151" lon="6.22513">
        <ele>236.3</ele>
        <time>2024-10-23T15:27:15.000Z</time>
      </trkpt>
      <trkpt lat="43.21514" lon="6.22502">
        <ele>235.9</ele>
        <time>2024-10-23T15:27:24.000Z</time>
      </trkpt>
      <trkpt lat="43.21514" lon="6.22501">
        <ele>235.8</ele>
        <time>2024-10-23T15:27:25.000Z</time>
      </trkpt>
      <trkpt lat="43.21512" lon="6.22479">
        <ele>235.5</ele>
        <time>2024-10-23T15:27:40.000Z</time>
      </trkpt>
      <trkpt lat="43.21512" lon="6.22467">
        <ele>235.5</ele>
        <time>2024-10-23T15:27:47.000Z</time>
      </trkpt>
      <trkpt lat="43.21512" lon="6.22456">
        <ele>235.3</ele>
        <time>2024-10-23T15:27:54.000Z</time>
      </trkpt>
      <trkpt lat="43.21514" lon="6.22445">
        <ele>235.3</ele>
        <time>2024-10-23T15:28:01.000Z</time>
      </trkpt>
      <trkpt lat="43.21516" lon="6.22435">
        <ele>235.1</ele>
        <time>2024-10-23T15:28:08.000Z</time>
      </trkpt>
      <trkpt lat="43.21519" lon="6.22424">
        <ele>234.8</ele>
        <time>2024-10-23T15:28:15.000Z</time>
      </trkpt>
      <trkpt lat="43.21522" lon="6.22413">
        <ele>234.7</ele>
        <time>2024-10-23T15:28:22.000Z</time>
      </trkpt>
      <trkpt lat="43.21525" lon="6.22403">
        <ele>234.5</ele>
        <time>2024-10-23T15:28:28.000Z</time>
      </trkpt>
      <trkpt lat="43.21526" lon="6.22402">
        <ele>234.5</ele>
        <time>2024-10-23T15:28:29.000Z</time>
      </trkpt>
      <trkpt lat="43.21535" lon="6.22383">
        <ele>234.4</ele>
        <time>2024-10-23T15:28:42.000Z</time>
      </trkpt>
      <trkpt lat="43.2154" lon="6.22374">
        <ele>233.9</ele>
        <time>2024-10-23T15:28:49.000Z</time>
      </trkpt>
      <trkpt lat="43.21545" lon="6.22364">
        <ele>233.5</ele>
        <time>2024-10-23T15:28:56.000Z</time>
      </trkpt>
      <trkpt lat="43.21549" lon="6.22355">
        <ele>233.2</ele>
        <time>2024-10-23T15:29:03.000Z</time>
      </trkpt>
      <trkpt lat="43.21554" lon="6.22345">
        <ele>233.2</ele>
        <time>2024-10-23T15:29:09.000Z</time>
      </trkpt>
      <trkpt lat="43.21558" lon="6.22335">
        <ele>232.7</ele>
        <time>2024-10-23T15:29:16.000Z</time>
      </trkpt>
      <trkpt lat="43.21561" lon="6.22324">
        <ele>231.9</ele>
        <time>2024-10-23T15:29:23.000Z</time>
      </trkpt>
      <trkpt lat="43.21565" lon="6.22314">
        <ele>231.8</ele>
        <time>2024-10-23T15:29:30.000Z</time>
      </trkpt>
      <trkpt lat="43.21566" lon="6.22312">
        <ele>231.8</ele>
        <time>2024-10-23T15:29:31.000Z</time>
      </trkpt>
      <trkpt lat="43.2157" lon="6.22292">
        <ele>231</ele>
        <time>2024-10-23T15:29:43.000Z</time>
      </trkpt>
      <trkpt lat="43.21573" lon="6.2228">
        <ele>230.6</ele>
        <time>2024-10-23T15:29:50.000Z</time>
      </trkpt>
      <trkpt lat="43.21574" lon="6.22269">
        <ele>230.5</ele>
        <time>2024-10-23T15:29:57.000Z</time>
      </trkpt>
      <trkpt lat="43.21576" lon="6.22258">
        <ele>229.6</ele>
        <time>2024-10-23T15:30:03.000Z</time>
      </trkpt>
      <trkpt lat="43.21576" lon="6.22247">
        <ele>228.8</ele>
        <time>2024-10-23T15:30:09.000Z</time>
      </trkpt>
      <trkpt lat="43.21576" lon="6.22236">
        <ele>228</ele>
        <time>2024-10-23T15:30:16.000Z</time>
      </trkpt>
      <trkpt lat="43.21576" lon="6.22225">
        <ele>227.5</ele>
        <time>2024-10-23T15:30:23.000Z</time>
      </trkpt>
      <trkpt lat="43.21576" lon="6.22213">
        <ele>226.8</ele>
        <time>2024-10-23T15:30:31.000Z</time>
      </trkpt>
      <trkpt lat="43.21576" lon="6.22211">
        <ele>226.8</ele>
        <time>2024-10-23T15:30:32.000Z</time>
      </trkpt>
      <trkpt lat="43.21581" lon="6.2219">
        <ele>226.1</ele>
        <time>2024-10-23T15:30:46.000Z</time>
      </trkpt>
      <trkpt lat="43.21585" lon="6.22181">
        <ele>225.7</ele>
        <time>2024-10-23T15:30:52.000Z</time>
      </trkpt>
      <trkpt lat="43.21589" lon="6.22171">
        <ele>225.1</ele>
        <time>2024-10-23T15:30:59.000Z</time>
      </trkpt>
      <trkpt lat="43.21594" lon="6.22162">
        <ele>224.6</ele>
        <time>2024-10-23T15:31:05.000Z</time>
      </trkpt>
      <trkpt lat="43.216" lon="6.22156">
        <ele>224.1</ele>
        <time>2024-10-23T15:31:11.000Z</time>
      </trkpt>
      <trkpt lat="43.21607" lon="6.22147">
        <ele>223.6</ele>
        <time>2024-10-23T15:31:18.000Z</time>
      </trkpt>
      <trkpt lat="43.21611" lon="6.22137">
        <ele>223.1</ele>
        <time>2024-10-23T15:31:26.000Z</time>
      </trkpt>
      <trkpt lat="43.21617" lon="6.22128">
        <ele>222.2</ele>
        <time>2024-10-23T15:31:34.000Z</time>
      </trkpt>
      <trkpt lat="43.21618" lon="6.22127">
        <ele>222.1</ele>
        <time>2024-10-23T15:31:35.000Z</time>
      </trkpt>
      <trkpt lat="43.21627" lon="6.22109">
        <ele>221.4</ele>
        <time>2024-10-23T15:31:49.000Z</time>
      </trkpt>
      <trkpt lat="43.21632" lon="6.221">
        <ele>221.2</ele>
        <time>2024-10-23T15:31:56.000Z</time>
      </trkpt>
      <trkpt lat="43.21637" lon="6.22091">
        <ele>220.8</ele>
        <time>2024-10-23T15:32:03.000Z</time>
      </trkpt>
      <trkpt lat="43.21642" lon="6.22082">
        <ele>220.4</ele>
        <time>2024-10-23T15:32:11.000Z</time>
      </trkpt>
      <trkpt lat="43.21645" lon="6.22071">
        <ele>219.8</ele>
        <time>2024-10-23T15:32:19.000Z</time>
      </trkpt>
      <trkpt lat="43.2165" lon="6.22063">
        <ele>219.4</ele>
        <time>2024-10-23T15:32:26.000Z</time>
      </trkpt>
      <trkpt lat="43.21654" lon="6.22053">
        <ele>218.8</ele>
        <time>2024-10-23T15:32:33.000Z</time>
      </trkpt>
      <trkpt lat="43.21658" lon="6.22043">
        <ele>218.4</ele>
        <time>2024-10-23T15:32:41.000Z</time>
      </trkpt>
      <trkpt lat="43.21659" lon="6.22042">
        <ele>218.2</ele>
        <time>2024-10-23T15:32:42.000Z</time>
      </trkpt>
      <trkpt lat="43.21656" lon="6.22028">
        <ele>216.2</ele>
        <time>2024-10-23T15:34:23.000Z</time>
      </trkpt>
      <trkpt lat="43.21656" lon="6.22027">
        <ele>216.2</ele>
        <time>2024-10-23T15:34:24.000Z</time>
      </trkpt>
      <trkpt lat="43.21656" lon="6.22031">
        <ele>215.1</ele>
        <time>2024-10-23T15:36:49.000Z</time>
      </trkpt>
      <trkpt lat="43.21656" lon="6.22031">
        <ele>215.1</ele>
        <time>2024-10-23T15:36:50.000Z</time>
      </trkpt>
    </trkseg>
  </trk>
</gpx>